Wetterdaten: Montag, 22.09.2014
Datum Zeit Temp. Aussen +5cm Feuchte Auss Luftdruck Regen Sonnenschein Regendauer Solar Windben
22.09.2014 00:00 11,6 C 10,6 C 92 % 1020,0 hPa 0,0 l/m 0 min 0 min 0 W/m 10,5 km/h (2 Bft)
22.09.2014 00:02 11,5 C 10,6 C 92 % 1020,0 hPa 0,0 l/m 0 min 0 min 0 W/m 10,5 km/h (2 Bft)
22.09.2014 00:05 11,5 C 10,6 C 92 % 1020,0 hPa 0,0 l/m 0 min 0 min 0 W/m 8,4 km/h (2 Bft)
22.09.2014 00:06 11,5 C 10,6 C 92 % 1020,0 hPa 0,0 l/m 0 min 0 min 0 W/m 6,3 km/h (2 Bft)
22.09.2014 00:08 11,6 C 11,1 C 92 % 1020,0 hPa 0,0 l/m 0 min 0 min 0 W/m 12,6 km/h (3 Bft)
22.09.2014 00:10 11,6 C 11,1 C 92 % 1020,1 hPa 0,0 l/m 0 min 0 min 0 W/m 10,5 km/h (2 Bft)
22.09.2014 00:12 11,6 C 11,1 C 93 % 1020,0 hPa 0,0 l/m 0 min 0 min 0 W/m 10,5 km/h (2 Bft)
22.09.2014 00:14 11,6 C 11,1 C 93 % 1020,0 hPa 0,0 l/m 0 min 0 min 0 W/m 12,6 km/h (3 Bft)
22.09.2014 00:16 11,7 C 11,1 C 93 % 1020,1 hPa 0,0 l/m 0 min 0 min 0 W/m 12,6 km/h (3 Bft)
22.09.2014 00:18 11,7 C 11,1 C 93 % 1020,1 hPa 0,0 l/m 0 min 0 min 0 W/m 14,6 km/h (3 Bft)
22.09.2014 00:20 11,8 C 11,7 C 93 % 1020,1 hPa 0,0 l/m 0 min 0 min 0 W/m 14,6 km/h (3 Bft)
22.09.2014 00:22 11,8 C 11,7 C 93 % 1020,0 hPa 0,0 l/m 0 min 0 min 0 W/m 12,6 km/h (3 Bft)
22.09.2014 00:24 11,8 C 11,7 C 93 % 1020,1 hPa 0,0 l/m 0 min 0 min 0 W/m 12,6 km/h (3 Bft)
22.09.2014 00:26 11,9 C 11,7 C 93 % 1020,1 hPa 0,0 l/m 0 min 0 min 0 W/m 12,6 km/h (3 Bft)
22.09.2014 00:28 11,9 C 11,7 C 93 % 1020,0 hPa 0,0 l/m 0 min 0 min 0 W/m 10,5 km/h (2 Bft)
22.09.2014 00:30 11,9 C 11,7 C 93 % 1020,1 hPa 0,0 l/m 0 min 0 min 0 W/m 12,6 km/h (3 Bft)
22.09.2014 00:32 12,0 C 11,7 C 94 % 1020,1 hPa 0,0 l/m 0 min 0 min 0 W/m 8,4 km/h (2 Bft)
22.09.2014 00:34 12,0 C 11,7 C 94 % 1020,1 hPa 0,0 l/m 0 min 0 min 0 W/m 8,4 km/h (2 Bft)
22.09.2014 00:36 12,1 C 11,7 C 94 % 1020,1 hPa 0,0 l/m 0 min 0 min 0 W/m 14,6 km/h (3 Bft)
22.09.2014 00:38 12,1 C 11,7 C 94 % 1020,1 hPa 0,0 l/m 0 min 0 min 0 W/m 8,4 km/h (2 Bft)
22.09.2014 00:40 12,1 C 11,7 C 94 % 1020,1 hPa 0,0 l/m 0 min 0 min 0 W/m 12,6 km/h (3 Bft)
22.09.2014 00:42 12,2 C 11,7 C 94 % 1020,1 hPa 0,0 l/m 0 min 0 min 0 W/m 12,6 km/h (3 Bft)
22.09.2014 00:44 12,2 C 11,7 C 94 % 1020,1 hPa 0,0 l/m 0 min 0 min 0 W/m 10,5 km/h (2 Bft)
22.09.2014 00:46 12,2 C 11,7 C 94 % 1020,2 hPa 0,0 l/m 0 min 0 min 0 W/m 10,5 km/h (2 Bft)
22.09.2014 00:48 12,2 C 11,7 C 94 % 1020,2 hPa 0,0 l/m 0 min 0 min 0 W/m 8,4 km/h (2 Bft)
22.09.2014 00:50 12,2 C 11,1 C 94 % 1020,2 hPa 0,0 l/m 0 min 0 min 0 W/m 8,4 km/h (2 Bft)
22.09.2014 00:52 12,2 C 11,1 C 94 % 1020,2 hPa 0,0 l/m 0 min 0 min 0 W/m 6,3 km/h (2 Bft)
22.09.2014 00:54 12,2 C 11,1 C 94 % 1020,2 hPa 0,0 l/m 0 min 0 min 0 W/m 8,4 km/h (2 Bft)
22.09.2014 00:56 12,2 C 11,1 C 94 % 1020,2 hPa 0,0 l/m 0 min 0 min 0 W/m 6,3 km/h (2 Bft)
22.09.2014 00:58 12,2 C 11,1 C 94 % 1020,2 hPa 0,0 l/m 0 min 0 min 0 W/m 4,2 km/h (1 Bft)
22.09.2014 01:00 12,2 C 11,1 C 94 % 1020,2 hPa 0,0 l/m 0 min 0 min 0 W/m 6,3 km/h (2 Bft)
22.09.2014 01:02 12,2 C 11,7 C 94 % 1020,2 hPa 0,0 l/m 0 min 0 min 0 W/m 6,3 km/h (2 Bft)
22.09.2014 01:04 12,2 C 11,7 C 94 % 1020,1 hPa 0,0 l/m 0 min 0 min 0 W/m 8,4 km/h (2 Bft)
22.09.2014 01:06 12,3 C 11,7 C 94 % 1020,2 hPa 0,0 l/m 0 min 0 min 0 W/m 12,6 km/h (3 Bft)
22.09.2014 01:08 12,3 C 11,7 C 94 % 1020,2 hPa 0,0 l/m 0 min 0 min 0 W/m 12,6 km/h (3 Bft)
22.09.2014 01:10 12,3 C 11,7 C 94 % 1020,2 hPa 0,0 l/m 0 min 0 min 0 W/m 10,5 km/h (2 Bft)
22.09.2014 01:12 12,3 C 11,7 C 94 % 1020,2 hPa 0,0 l/m 0 min 0 min 0 W/m 10,5 km/h (2 Bft)
22.09.2014 01:14 12,3 C 11,7 C 94 % 1020,2 hPa 0,0 l/m 0 min 0 min 0 W/m 14,6 km/h (3 Bft)
22.09.2014 01:16 12,3 C 11,7 C 94 % 1020,2 hPa 0,0 l/m 0 min 0 min 0 W/m 12,6 km/h (3 Bft)
22.09.2014 01:18 12,3 C 11,7 C 94 % 1020,1 hPa 0,0 l/m 0 min 0 min 0 W/m 14,6 km/h (3 Bft)
22.09.2014 01:20 12,3 C 11,7 C 94 % 1020,2 hPa 0,0 l/m 0 min 0 min 0 W/m 8,4 km/h (2 Bft)
22.09.2014 01:22 12,4 C 11,7 C 94 % 1020,3 hPa 0,0 l/m 0 min 2 min 0 W/m 12,6 km/h (3 Bft)
22.09.2014 01:24 12,4 C 11,7 C 94 % 1020,3 hPa 0,2 l/m 0 min 2 min 0 W/m 16,7 km/h (3 Bft)
22.09.2014 01:26 12,4 C 11,7 C 94 % 1020,4 hPa 0,0 l/m 0 min 2 min 0 W/m 12,6 km/h (3 Bft)
22.09.2014 01:28 12,4 C 11,1 C 94 % 1020,4 hPa 0,0 l/m 0 min 2 min 0 W/m 16,7 km/h (3 Bft)
22.09.2014 01:30 12,5 C 11,7 C 94 % 1020,3 hPa 0,0 l/m 0 min 2 min 0 W/m 12,6 km/h (3 Bft)
22.09.2014 01:32 12,5 C 11,7 C 94 % 1020,4 hPa 0,0 l/m 0 min 2 min 0 W/m 18,8 km/h (3 Bft)
22.09.2014 01:34 12,6 C 11,1 C 95 % 1020,3 hPa 0,0 l/m 0 min 2 min 0 W/m 14,6 km/h (3 Bft)
22.09.2014 01:36 12,6 C 11,1 C 95 % 1020,3 hPa 0,0 l/m 0 min 2 min 0 W/m 10,5 km/h (2 Bft)
22.09.2014 01:38 12,6 C 11,7 C 95 % 1020,3 hPa 0,0 l/m 0 min 0 min 0 W/m 10,5 km/h (2 Bft)
22.09.2014 01:40 12,6 C 11,7 C 95 % 1020,3 hPa 0,0 l/m 0 min 0 min 0 W/m 8,4 km/h (2 Bft)
22.09.2014 01:42 12,6 C 11,7 C 95 % 1020,3 hPa 0,0 l/m 0 min 0 min 0 W/m 12,6 km/h (3 Bft)
22.09.2014 01:44 12,6 C 11,7 C 95 % 1020,4 hPa 0,0 l/m 0 min 0 min 0 W/m 14,6 km/h (3 Bft)
22.09.2014 01:46 12,7 C 11,1 C 95 % 1020,4 hPa 0,0 l/m 0 min 0 min 0 W/m 10,5 km/h (2 Bft)
22.09.2014 01:48 12,6 C 11,1 C 95 % 1020,3 hPa 0,0 l/m 0 min 0 min 0 W/m 10,5 km/h (2 Bft)
22.09.2014 01:50 12,7 C 11,7 C 95 % 1020,4 hPa 0,0 l/m 0 min 0 min 0 W/m 12,6 km/h (3 Bft)
22.09.2014 01:52 12,7 C 11,7 C 95 % 1020,3 hPa 0,0 l/m 0 min 0 min 0 W/m 10,5 km/h (2 Bft)
22.09.2014 01:54 12,6 C 11,7 C 95 % 1020,3 hPa 0,0 l/m 0 min 0 min 0 W/m 6,3 km/h (2 Bft)
22.09.2014 01:56 12,7 C 11,1 C 95 % 1020,3 hPa 0,0 l/m 0 min 0 min 0 W/m 10,5 km/h (2 Bft)
22.09.2014 01:58 12,6 C 11,1 C 95 % 1020,3 hPa 0,0 l/m 0 min 0 min 0 W/m 8,4 km/h (2 Bft)
22.09.2014 02:00 12,6 C 11,1 C 95 % 1020,3 hPa 0,0 l/m 0 min 0 min 0 W/m 12,6 km/h (3 Bft)
22.09.2014 02:02 12,7 C 11,1 C 95 % 1020,4 hPa 0,0 l/m 0 min 0 min 0 W/m 10,5 km/h (2 Bft)
22.09.2014 02:04 12,7 C 11,1 C 95 % 1020,4 hPa 0,0 l/m 0 min 0 min 0 W/m 10,5 km/h (2 Bft)
22.09.2014 02:06 12,6 C 11,1 C 95 % 1020,3 hPa 0,0 l/m 0 min 0 min 0 W/m 8,4 km/h (2 Bft)
22.09.2014 02:08 12,6 C 11,1 C 95 % 1020,4 hPa 0,0 l/m 0 min 0 min 0 W/m 10,5 km/h (2 Bft)
22.09.2014 02:10 12,6 C 11,1 C 95 % 1020,4 hPa 0,0 l/m 0 min 0 min 0 W/m 10,5 km/h (2 Bft)
22.09.2014 02:12 12,6 C 11,1 C 95 % 1020,4 hPa 0,0 l/m 0 min 0 min 0 W/m 10,5 km/h (2 Bft)
22.09.2014 02:14 12,6 C 11,1 C 95 % 1020,3 hPa 0,0 l/m 0 min 0 min 0 W/m 8,4 km/h (2 Bft)
22.09.2014 02:16 12,6 C 11,1 C 95 % 1020,3 hPa 0,0 l/m 0 min 0 min 0 W/m 4,2 km/h (1 Bft)
22.09.2014 02:18 12,6 C 11,1 C 95 % 1020,3 hPa 0,0 l/m 0 min 0 min 0 W/m 8,4 km/h (2 Bft)
22.09.2014 02:20 12,6 C 11,1 C 95 % 1020,4 hPa 0,0 l/m 0 min 0 min 0 W/m 8,4 km/h (2 Bft)
22.09.2014 02:22 12,6 C 11,1 C 95 % 1020,4 hPa 0,0 l/m 0 min 0 min 0 W/m 10,5 km/h (2 Bft)
22.09.2014 02:24 12,6 C 11,1 C 95 % 1020,3 hPa 0,0 l/m 0 min 0 min 0 W/m 8,4 km/h (2 Bft)
22.09.2014 02:26 12,6 C 11,1 C 95 % 1020,4 hPa 0,0 l/m 0 min 0 min 0 W/m 8,4 km/h (2 Bft)
22.09.2014 02:28 12,6 C 11,1 C 95 % 1020,4 hPa 0,0 l/m 0 min 0 min 0 W/m 6,3 km/h (2 Bft)
22.09.2014 02:30 12,6 C 11,1 C 95 % 1020,3 hPa 0,0 l/m 0 min 0 min 0 W/m 10,5 km/h (2 Bft)
22.09.2014 02:32 12,6 C 11,1 C 95 % 1020,4 hPa 0,0 l/m 0 min 0 min 0 W/m 10,5 km/h (2 Bft)
22.09.2014 02:34 12,5 C 11,1 C 95 % 1020,4 hPa 0,0 l/m 0 min 0 min 0 W/m 12,6 km/h (3 Bft)
22.09.2014 02:36 12,5 C 11,1 C 95 % 1020,3 hPa 0,0 l/m 0 min 0 min 0 W/m 10,5 km/h (2 Bft)
22.09.2014 02:38 12,5 C 11,1 C 95 % 1020,3 hPa 0,0 l/m 0 min 0 min 0 W/m 10,5 km/h (2 Bft)
22.09.2014 02:40 12,5 C 11,1 C 95 % 1020,4 hPa 0,0 l/m 0 min 0 min 0 W/m 8,4 km/h (2 Bft)
22.09.2014 02:42 12,5 C 11,1 C 95 % 1020,3 hPa 0,0 l/m 0 min 0 min 0 W/m 6,3 km/h (2 Bft)
22.09.2014 02:44 12,5 C 11,1 C 95 % 1020,3 hPa 0,0 l/m 0 min 0 min 0 W/m 10,5 km/h (2 Bft)
22.09.2014 02:46 12,5 C 11,1 C 95 % 1020,3 hPa 0,0 l/m 0 min 0 min 0 W/m 12,6 km/h (3 Bft)
22.09.2014 02:48 12,5 C 11,1 C 95 % 1020,4 hPa 0,0 l/m 0 min 0 min 0 W/m 12,6 km/h (3 Bft)
22.09.2014 02:50 12,5 C 11,1 C 95 % 1020,4 hPa 0,0 l/m 0 min 0 min 0 W/m 14,6 km/h (3 Bft)
22.09.2014 02:52 12,4 C 11,1 C 95 % 1020,4 hPa 0,0 l/m 0 min 0 min 0 W/m 12,6 km/h (3 Bft)
22.09.2014 02:54 12,4 C 11,1 C 95 % 1020,4 hPa 0,0 l/m 0 min 0 min 0 W/m 8,4 km/h (2 Bft)
22.09.2014 02:56 12,4 C 11,1 C 95 % 1020,4 hPa 0,0 l/m 0 min 0 min 0 W/m 10,5 km/h (2 Bft)
22.09.2014 02:58 12,4 C 10,6 C 95 % 1020,4 hPa 0,0 l/m 0 min 0 min 0 W/m 6,3 km/h (2 Bft)
22.09.2014 03:00 12,4 C 11,1 C 95 % 1020,4 hPa 0,0 l/m 0 min 0 min 0 W/m 10,5 km/h (2 Bft)
22.09.2014 03:02 12,4 C 10,6 C 95 % 1020,3 hPa 0,0 l/m 0 min 0 min 0 W/m 8,4 km/h (2 Bft)
22.09.2014 03:04 12,3 C 10,6 C 95 % 1020,4 hPa 0,0 l/m 0 min 0 min 0 W/m 8,4 km/h (2 Bft)
22.09.2014 03:06 12,3 C 10,6 C 95 % 1020,3 hPa 0,0 l/m 0 min 0 min 0 W/m 10,5 km/h (2 Bft)
22.09.2014 03:08 12,3 C 10,6 C 95 % 1020,4 hPa 0,0 l/m 0 min 0 min 0 W/m 8,4 km/h (2 Bft)
22.09.2014 03:10 12,2 C 10,6 C 95 % 1020,3 hPa 0,0 l/m 0 min 0 min 0 W/m 8,4 km/h (2 Bft)
22.09.2014 03:12 12,2 C 10,6 C 95 % 1020,3 hPa 0,0 l/m 0 min 0 min 0 W/m 8,4 km/h (2 Bft)
22.09.2014 03:14 12,2 C 10,6 C 95 % 1020,2 hPa 0,0 l/m 0 min 0 min 0 W/m 8,4 km/h (2 Bft)
22.09.2014 03:16 12,1 C 10,6 C 95 % 1020,2 hPa 0,0 l/m 0 min 0 min 0 W/m 8,4 km/h (2 Bft)
22.09.2014 03:18 12,1 C 10,6 C 95 % 1020,2 hPa 0,0 l/m 0 min 0 min 0 W/m 10,5 km/h (2 Bft)
22.09.2014 03:20 12,1 C 10,0 C 95 % 1020,2 hPa 0,0 l/m 0 min 0 min 0 W/m 10,5 km/h (2 Bft)
22.09.2014 03:22 12,0 C 10,0 C 95 % 1020,1 hPa 0,0 l/m 0 min 0 min 0 W/m 10,5 km/h (2 Bft)
22.09.2014 03:24 11,9 C 10,0 C 95 % 1020,1 hPa 0,0 l/m 0 min 0 min 0 W/m 8,4 km/h (2 Bft)
22.09.2014 03:26 11,9 C 10,0 C 95 % 1020,1 hPa 0,0 l/m 0 min 0 min 0 W/m 6,3 km/h (2 Bft)
22.09.2014 03:28 11,9 C 10,0 C 95 % 1020,1 hPa 0,0 l/m 0 min 0 min 0 W/m 8,4 km/h (2 Bft)
22.09.2014 03:30 11,8 C 10,0 C 95 % 1020,1 hPa 0,0 l/m 0 min 0 min 0 W/m 6,3 km/h (2 Bft)
22.09.2014 03:32 11,8 C 10,0 C 95 % 1020,1 hPa 0,0 l/m 0 min 0 min 0 W/m 6,3 km/h (2 Bft)
22.09.2014 03:34 11,8 C 10,0 C 95 % 1020,1 hPa 0,0 l/m 0 min 0 min 0 W/m 8,4 km/h (2 Bft)
22.09.2014 03:36 11,7 C 10,0 C 95 % 1020,1 hPa 0,0 l/m 0 min 0 min 0 W/m 4,2 km/h (1 Bft)
22.09.2014 03:38 11,7 C 9,4 C 95 % 1020,2 hPa 0,0 l/m 0 min 0 min 0 W/m 6,3 km/h (2 Bft)
22.09.2014 03:40 11,7 C 9,4 C 95 % 1020,1 hPa 0,0 l/m 0 min 0 min 0 W/m 6,3 km/h (2 Bft)
22.09.2014 03:42 11,7 C 9,4 C 95 % 1020,2 hPa 0,0 l/m 0 min 0 min 0 W/m 8,4 km/h (2 Bft)
22.09.2014 03:44 11,6 C 9,4 C 95 % 1020,2 hPa 0,0 l/m 0 min 0 min 0 W/m 8,4 km/h (2 Bft)
22.09.2014 03:46 11,6 C 9,4 C 95 % 1020,2 hPa 0,0 l/m 0 min 0 min 0 W/m 10,5 km/h (2 Bft)
22.09.2014 03:48 11,5 C 9,4 C 95 % 1020,1 hPa 0,0 l/m 0 min 0 min 0 W/m 8,4 km/h (2 Bft)
22.09.2014 03:50 11,5 C 9,4 C 95 % 1020,2 hPa 0,0 l/m 0 min 0 min 0 W/m 8,4 km/h (2 Bft)
22.09.2014 03:52 11,4 C 9,4 C 95 % 1020,1 hPa 0,0 l/m 0 min 0 min 0 W/m 10,5 km/h (2 Bft)
22.09.2014 03:54 11,4 C 9,4 C 95 % 1020,2 hPa 0,0 l/m 0 min 0 min 0 W/m 12,6 km/h (3 Bft)
22.09.2014 03:56 11,3 C 10,0 C 95 % 1020,1 hPa 0,0 l/m 0 min 0 min 0 W/m 8,4 km/h (2 Bft)
22.09.2014 03:58 11,3 C 9,4 C 95 % 1020,1 hPa 0,0 l/m 0 min 0 min 0 W/m 10,5 km/h (2 Bft)
22.09.2014 04:00 11,3 C 9,4 C 95 % 1020,1 hPa 0,0 l/m 0 min 0 min 0 W/m 10,5 km/h (2 Bft)
22.09.2014 04:02 11,2 C 10,0 C 95 % 1020,1 hPa 0,0 l/m 0 min 0 min 0 W/m 8,4 km/h (2 Bft)
22.09.2014 04:04 11,2 C 10,0 C 95 % 1020,2 hPa 0,0 l/m 0 min 0 min 0 W/m 16,7 km/h (3 Bft)
22.09.2014 04:06 11,2 C 10,0 C 95 % 1020,1 hPa 0,0 l/m 0 min 0 min 0 W/m 10,5 km/h (2 Bft)
22.09.2014 04:08 11,2 C 10,0 C 95 % 1020,1 hPa 0,0 l/m 0 min 0 min 0 W/m 12,6 km/h (3 Bft)
22.09.2014 04:10 11,2 C 10,0 C 95 % 1020,1 hPa 0,0 l/m 0 min 0 min 0 W/m 8,4 km/h (2 Bft)
22.09.2014 04:12 11,1 C 10,0 C 95 % 1020,1 hPa 0,0 l/m 0 min 0 min 0 W/m 16,7 km/h (3 Bft)
22.09.2014 04:14 11,1 C 10,0 C 95 % 1020,1 hPa 0,0 l/m 0 min 0 min 0 W/m 12,6 km/h (3 Bft)
22.09.2014 04:16 11,1 C 10,0 C 95 % 1020,1 hPa 0,0 l/m 0 min 0 min 0 W/m 12,6 km/h (3 Bft)
22.09.2014 04:18 11,1 C 9,4 C 95 % 1020,0 hPa 0,0 l/m 0 min 0 min 0 W/m 8,4 km/h (2 Bft)
22.09.2014 04:20 11,1 C 9,4 C 95 % 1020,0 hPa 0,0 l/m 0 min 0 min 0 W/m 10,5 km/h (2 Bft)
22.09.2014 04:22 11,1 C 9,4 C 95 % 1020,0 hPa 0,0 l/m 0 min 0 min 0 W/m 10,5 km/h (2 Bft)
22.09.2014 04:24 11,0 C 9,4 C 95 % 1020,0 hPa 0,0 l/m 0 min 0 min 0 W/m 10,5 km/h (2 Bft)
22.09.2014 04:26 11,0 C 9,4 C 95 % 1020,0 hPa 0,0 l/m 0 min 0 min 0 W/m 14,6 km/h (3 Bft)
22.09.2014 04:28 11,0 C 9,4 C 95 % 1020,0 hPa 0,0 l/m 0 min 0 min 0 W/m 12,6 km/h (3 Bft)
22.09.2014 04:30 10,9 C 9,4 C 95 % 1020,0 hPa 0,0 l/m 0 min 0 min 0 W/m 18,8 km/h (3 Bft)
22.09.2014 04:32 10,9 C 9,4 C 95 % 1020,0 hPa 0,0 l/m 0 min 0 min 0 W/m 16,7 km/h (3 Bft)
22.09.2014 04:34 10,9 C 9,4 C 95 % 1020,0 hPa 0,0 l/m 0 min 0 min 0 W/m 10,5 km/h (2 Bft)
22.09.2014 04:36 10,9 C 9,4 C 95 % 1020,0 hPa 0,0 l/m 0 min 0 min 0 W/m 8,4 km/h (2 Bft)
22.09.2014 04:38 10,9 C 10,0 C 95 % 1020,1 hPa 0,0 l/m 0 min 0 min 0 W/m 12,6 km/h (3 Bft)
22.09.2014 04:40 10,9 C 10,0 C 95 % 1020,0 hPa 0,0 l/m 0 min 0 min 0 W/m 14,6 km/h (3 Bft)
22.09.2014 04:42 10,9 C 10,0 C 95 % 1020,0 hPa 0,0 l/m 0 min 0 min 0 W/m 8,4 km/h (2 Bft)
22.09.2014 04:44 10,9 C 10,0 C 95 % 1020,0 hPa 0,0 l/m 0 min 0 min 0 W/m 16,7 km/h (3 Bft)
22.09.2014 04:46 10,8 C 10,0 C 95 % 1019,9 hPa 0,0 l/m 0 min 2 min 0 W/m 12,6 km/h (3 Bft)
22.09.2014 04:48 10,9 C 10,0 C 95 % 1019,9 hPa 0,2 l/m 0 min 2 min 0 W/m 10,5 km/h (2 Bft)
22.09.2014 04:50 10,9 C 10,0 C 95 % 1019,9 hPa 0,0 l/m 0 min 2 min 0 W/m 6,3 km/h (2 Bft)
22.09.2014 04:52 10,9 C 10,0 C 95 % 1019,8 hPa 0,0 l/m 0 min 0 min 0 W/m 12,6 km/h (3 Bft)
22.09.2014 04:54 10,9 C 10,0 C 95 % 1019,9 hPa 0,0 l/m 0 min 0 min 0 W/m 14,6 km/h (3 Bft)
22.09.2014 04:56 10,9 C 10,0 C 95 % 1019,9 hPa 0,0 l/m 0 min 0 min 0 W/m 16,7 km/h (3 Bft)
22.09.2014 04:58 10,9 C 10,0 C 95 % 1019,9 hPa 0,0 l/m 0 min 0 min 0 W/m 12,6 km/h (3 Bft)
22.09.2014 05:00 10,9 C 10,0 C 95 % 1019,9 hPa 0,0 l/m 0 min 0 min 0 W/m 14,6 km/h (3 Bft)
22.09.2014 05:02 10,9 C 10,0 C 95 % 1019,9 hPa 0,0 l/m 0 min 0 min 0 W/m 10,5 km/h (2 Bft)
22.09.2014 05:04 10,9 C 10,0 C 95 % 1019,9 hPa 0,0 l/m 0 min 0 min 0 W/m 12,6 km/h (3 Bft)
22.09.2014 05:06 10,9 C 10,0 C 95 % 1019,9 hPa 0,0 l/m 0 min 0 min 0 W/m 18,8 km/h (3 Bft)
22.09.2014 05:08 10,9 C 10,0 C 95 % 1020,0 hPa 0,0 l/m 0 min 0 min 0 W/m 12,6 km/h (3 Bft)
22.09.2014 05:10 11,0 C 10,0 C 95 % 1020,0 hPa 0,0 l/m 0 min 0 min 0 W/m 16,7 km/h (3 Bft)
22.09.2014 05:12 11,0 C 10,0 C 95 % 1019,9 hPa 0,0 l/m 0 min 0 min 0 W/m 10,5 km/h (2 Bft)
22.09.2014 05:14 11,0 C 10,0 C 95 % 1019,9 hPa 0,0 l/m 0 min 0 min 0 W/m 10,5 km/h (2 Bft)
22.09.2014 05:16 11,1 C 10,0 C 95 % 1019,9 hPa 0,0 l/m 0 min 0 min 0 W/m 18,8 km/h (3 Bft)
22.09.2014 05:18 11,1 C 10,0 C 95 % 1019,9 hPa 0,0 l/m 0 min 0 min 0 W/m 18,8 km/h (3 Bft)
22.09.2014 05:20 11,1 C 10,0 C 95 % 1019,9 hPa 0,0 l/m 0 min 0 min 0 W/m 18,8 km/h (3 Bft)
22.09.2014 05:22 11,1 C 10,0 C 95 % 1019,8 hPa 0,0 l/m 0 min 0 min 0 W/m 14,6 km/h (3 Bft)
22.09.2014 05:24 11,1 C 10,0 C 95 % 1019,8 hPa 0,0 l/m 0 min 0 min 0 W/m 14,6 km/h (3 Bft)
22.09.2014 05:26 11,1 C 10,0 C 95 % 1019,9 hPa 0,0 l/m 0 min 0 min 0 W/m 12,6 km/h (3 Bft)
22.09.2014 05:28 11,1 C 10,0 C 95 % 1019,8 hPa 0,0 l/m 0 min 0 min 0 W/m 12,6 km/h (3 Bft)
22.09.2014 05:30 11,1 C 10,0 C 95 % 1019,8 hPa 0,0 l/m 0 min 0 min 0 W/m 16,7 km/h (3 Bft)
22.09.2014 05:32 11,2 C 10,6 C 95 % 1019,8 hPa 0,0 l/m 0 min 0 min 0 W/m 14,6 km/h (3 Bft)
22.09.2014 05:34 11,2 C 10,6 C 95 % 1019,7 hPa 0,0 l/m 0 min 0 min 0 W/m 14,6 km/h (3 Bft)
22.09.2014 05:36 11,2 C 10,6 C 95 % 1019,7 hPa 0,0 l/m 0 min 0 min 0 W/m 14,6 km/h (3 Bft)
22.09.2014 05:38 11,2 C 10,6 C 95 % 1019,6 hPa 0,0 l/m 0 min 0 min 0 W/m 16,7 km/h (3 Bft)
22.09.2014 05:40 11,2 C 10,6 C 95 % 1019,7 hPa 0,0 l/m 0 min 0 min 0 W/m 12,6 km/h (3 Bft)
22.09.2014 05:42 11,2 C 10,6 C 95 % 1019,6 hPa 0,0 l/m 0 min 0 min 0 W/m 16,7 km/h (3 Bft)
22.09.2014 05:44 11,2 C 10,6 C 95 % 1019,6 hPa 0,0 l/m 0 min 0 min 0 W/m 14,6 km/h (3 Bft)
22.09.2014 05:46 11,2 C 10,6 C 95 % 1019,6 hPa 0,0 l/m 0 min 0 min 0 W/m 12,6 km/h (3 Bft)
22.09.2014 05:48 11,2 C 10,6 C 95 % 1019,5 hPa 0,0 l/m 0 min 0 min 0 W/m 12,6 km/h (3 Bft)
22.09.2014 05:50 11,3 C 10,6 C 95 % 1019,5 hPa 0,0 l/m 0 min 0 min 0 W/m 18,8 km/h (3 Bft)
22.09.2014 05:52 11,3 C 10,6 C 95 % 1019,6 hPa 0,0 l/m 0 min 0 min 0 W/m 16,7 km/h (3 Bft)
22.09.2014 05:54 11,3 C 10,6 C 95 % 1019,6 hPa 0,0 l/m 0 min 0 min 0 W/m 8,4 km/h (2 Bft)
22.09.2014 05:56 11,3 C 10,6 C 95 % 1019,5 hPa 0,0 l/m 0 min 0 min 0 W/m 18,8 km/h (3 Bft)
22.09.2014 05:58 11,3 C 10,6 C 95 % 1019,5 hPa 0,0 l/m 0 min 0 min 0 W/m 14,6 km/h (3 Bft)
22.09.2014 06:00 11,3 C 10,6 C 95 % 1019,6 hPa 0,0 l/m 0 min 0 min 0 W/m 14,6 km/h (3 Bft)
22.09.2014 06:02 11,3 C 10,6 C 95 % 1019,6 hPa 0,0 l/m 0 min 0 min 0 W/m 18,8 km/h (3 Bft)
22.09.2014 06:05 11,3 C 10,6 C 95 % 1019,6 hPa 0,0 l/m 0 min 0 min 0 W/m 14,6 km/h (3 Bft)
22.09.2014 06:06 11,3 C 10,6 C 95 % 1019,6 hPa 0,0 l/m 0 min 0 min 0 W/m 14,6 km/h (3 Bft)
22.09.2014 06:08 11,4 C 10,6 C 95 % 1019,6 hPa 0,0 l/m 0 min 0 min 0 W/m 16,7 km/h (3 Bft)
22.09.2014 06:10 11,4 C 10,6 C 95 % 1019,6 hPa 0,0 l/m 0 min 0 min 0 W/m 16,7 km/h (3 Bft)
22.09.2014 06:12 11,4 C 10,6 C 95 % 1019,7 hPa 0,0 l/m 0 min 0 min 0 W/m 12,6 km/h (3 Bft)
22.09.2014 06:14 11,4 C 10,6 C 95 % 1019,7 hPa 0,0 l/m 0 min 0 min 0 W/m 12,6 km/h (3 Bft)
22.09.2014 06:16 11,4 C 10,6 C 95 % 1019,7 hPa 0,0 l/m 0 min 0 min 0 W/m 14,6 km/h (3 Bft)
22.09.2014 06:18 11,4 C 10,6 C 95 % 1019,7 hPa 0,0 l/m 0 min 0 min 0 W/m 14,6 km/h (3 Bft)
22.09.2014 06:20 11,5 C 10,6 C 95 % 1019,7 hPa 0,0 l/m 0 min 0 min 0 W/m 14,6 km/h (3 Bft)
22.09.2014 06:22 11,5 C 10,6 C 95 % 1019,8 hPa 0,0 l/m 0 min 0 min 0 W/m 12,6 km/h (3 Bft)
22.09.2014 06:24 11,5 C 10,6 C 95 % 1019,8 hPa 0,0 l/m 0 min 0 min 0 W/m 10,5 km/h (2 Bft)
22.09.2014 06:26 11,5 C 10,6 C 95 % 1019,7 hPa 0,0 l/m 0 min 0 min 0 W/m 14,6 km/h (3 Bft)
22.09.2014 06:28 11,5 C 10,6 C 94 % 1019,7 hPa 0,0 l/m 0 min 0 min 0 W/m 12,6 km/h (3 Bft)
22.09.2014 06:30 11,6 C 10,6 C 94 % 1019,7 hPa 0,0 l/m 0 min 0 min 0 W/m 14,6 km/h (3 Bft)
22.09.2014 06:32 11,6 C 10,6 C 94 % 1019,7 hPa 0,0 l/m 0 min 0 min 0 W/m 10,5 km/h (2 Bft)
22.09.2014 06:34 11,6 C 10,6 C 94 % 1019,7 hPa 0,0 l/m 0 min 0 min 0 W/m 8,4 km/h (2 Bft)
22.09.2014 06:36 11,6 C 10,6 C 94 % 1019,7 hPa 0,0 l/m 0 min 0 min 0 W/m 16,7 km/h (3 Bft)
22.09.2014 06:38 11,6 C 10,6 C 94 % 1019,6 hPa 0,0 l/m 0 min 0 min 0 W/m 14,6 km/h (3 Bft)
22.09.2014 06:40 11,6 C 10,6 C 94 % 1019,7 hPa 0,0 l/m 0 min 0 min 0 W/m 23,0 km/h (4 Bft)
22.09.2014 06:42 11,6 C 10,6 C 94 % 1019,6 hPa 0,0 l/m 0 min 0 min 0 W/m 16,7 km/h (3 Bft)
22.09.2014 06:44 11,6 C 10,6 C 94 % 1019,6 hPa 0,0 l/m 0 min 0 min 0 W/m 12,6 km/h (3 Bft)
22.09.2014 06:46 11,6 C 10,6 C 93 % 1019,7 hPa 0,0 l/m 0 min 0 min 0 W/m 23,0 km/h (4 Bft)
22.09.2014 06:48 11,6 C 10,6 C 93 % 1019,7 hPa 0,0 l/m 0 min 0 min 0 W/m 14,6 km/h (3 Bft)
22.09.2014 06:50 11,6 C 10,6 C 93 % 1019,7 hPa 0,0 l/m 0 min 0 min 0 W/m 18,8 km/h (3 Bft)
22.09.2014 06:52 11,6 C 10,6 C 93 % 1019,6 hPa 0,0 l/m 0 min 0 min 0 W/m 12,6 km/h (3 Bft)
22.09.2014 06:54 11,7 C 10,6 C 93 % 1019,6 hPa 0,0 l/m 0 min 0 min 0 W/m 16,7 km/h (3 Bft)
22.09.2014 06:56 11,7 C 10,6 C 93 % 1019,7 hPa 0,0 l/m 0 min 0 min 0 W/m 12,6 km/h (3 Bft)
22.09.2014 06:58 11,7 C 10,6 C 93 % 1019,7 hPa 0,0 l/m 0 min 0 min 0 W/m 12,6 km/h (3 Bft)
22.09.2014 07:00 11,7 C 10,6 C 93 % 1019,7 hPa 0,0 l/m 0 min 0 min 0 W/m 18,8 km/h (3 Bft)
22.09.2014 07:02 11,7 C 10,6 C 93 % 1019,7 hPa 0,0 l/m 0 min 0 min 0 W/m 12,6 km/h (3 Bft)
22.09.2014 07:04 11,7 C 10,6 C 92 % 1019,7 hPa 0,0 l/m 0 min 0 min 0 W/m 16,7 km/h (3 Bft)
22.09.2014 07:06 11,7 C 10,6 C 92 % 1019,7 hPa 0,0 l/m 0 min 0 min 0 W/m 20,9 km/h (4 Bft)
22.09.2014 07:08 11,7 C 10,6 C 92 % 1019,7 hPa 0,0 l/m 0 min 0 min 0 W/m 14,6 km/h (3 Bft)
22.09.2014 07:10 11,7 C 10,6 C 92 % 1019,7 hPa 0,0 l/m 0 min 0 min 0 W/m 8,4 km/h (2 Bft)
22.09.2014 07:12 11,7 C 10,6 C 92 % 1019,7 hPa 0,0 l/m 0 min 0 min 0 W/m 14,6 km/h (3 Bft)
22.09.2014 07:14 11,7 C 10,6 C 92 % 1019,7 hPa 0,0 l/m 0 min 0 min 0 W/m 20,9 km/h (4 Bft)
22.09.2014 07:16 11,7 C 10,6 C 92 % 1019,6 hPa 0,0 l/m 0 min 0 min 0 W/m 14,6 km/h (3 Bft)
22.09.2014 07:18 11,7 C 10,6 C 92 % 1019,6 hPa 0,0 l/m 0 min 0 min 0 W/m 12,6 km/h (3 Bft)
22.09.2014 07:20 11,7 C 10,6 C 92 % 1019,5 hPa 0,0 l/m 0 min 0 min 0 W/m 12,6 km/h (3 Bft)
22.09.2014 07:22 11,7 C 10,6 C 92 % 1019,4 hPa 0,0 l/m 0 min 0 min 0 W/m 18,8 km/h (3 Bft)
22.09.2014 07:24 11,7 C 10,6 C 91 % 1019,3 hPa 0,0 l/m 0 min 0 min 0 W/m 12,6 km/h (3 Bft)
22.09.2014 07:26 11,7 C 10,6 C 91 % 1019,3 hPa 0,0 l/m 0 min 0 min 4 W/m 16,7 km/h (3 Bft)
22.09.2014 07:28 11,7 C 10,6 C 91 % 1019,3 hPa 0,0 l/m 0 min 0 min 5 W/m 16,7 km/h (3 Bft)
22.09.2014 07:30 11,7 C 10,6 C 91 % 1019,3 hPa 0,0 l/m 0 min 0 min 6 W/m 12,6 km/h (3 Bft)
22.09.2014 07:32 11,7 C 10,6 C 91 % 1019,3 hPa 0,0 l/m 0 min 0 min 7 W/m 16,7 km/h (3 Bft)
22.09.2014 07:34 11,7 C 10,6 C 90 % 1019,2 hPa 0,0 l/m 0 min 0 min 9 W/m 14,6 km/h (3 Bft)
22.09.2014 07:36 11,7 C 10,0 C 90 % 1019,1 hPa 0,0 l/m 0 min 0 min 11 W/m 10,5 km/h (2 Bft)
22.09.2014 07:38 11,7 C 10,0 C 90 % 1019,1 hPa 0,0 l/m 0 min 0 min 12 W/m 16,7 km/h (3 Bft)
22.09.2014 07:40 11,6 C 10,0 C 90 % 1019,1 hPa 0,0 l/m 0 min 0 min 14 W/m 14,6 km/h (3 Bft)
22.09.2014 07:42 11,6 C 10,0 C 90 % 1019,2 hPa 0,0 l/m 0 min 0 min 16 W/m 12,6 km/h (3 Bft)
22.09.2014 07:44 11,6 C 10,0 C 90 % 1019,2 hPa 0,0 l/m 0 min 0 min 17 W/m 18,8 km/h (3 Bft)
22.09.2014 07:46 11,6 C 10,0 C 90 % 1019,3 hPa 0,0 l/m 0 min 0 min 20 W/m 20,9 km/h (4 Bft)
22.09.2014 07:48 11,6 C 10,0 C 89 % 1019,4 hPa 0,0 l/m 0 min 0 min 23 W/m 16,7 km/h (3 Bft)
22.09.2014 07:50 11,5 C 10,0 C 89 % 1019,4 hPa 0,0 l/m 0 min 0 min 25 W/m 14,6 km/h (3 Bft)
22.09.2014 07:52 11,5 C 10,0 C 89 % 1019,5 hPa 0,0 l/m 0 min 0 min 27 W/m 14,6 km/h (3 Bft)
22.09.2014 07:54 11,5 C 10,0 C 89 % 1019,5 hPa 0,0 l/m 0 min 0 min 30 W/m 14,6 km/h (3 Bft)
22.09.2014 07:56 11,5 C 10,0 C 89 % 1019,5 hPa 0,0 l/m 0 min 0 min 32 W/m 16,7 km/h (3 Bft)
22.09.2014 07:58 11,5 C 10,0 C 89 % 1019,5 hPa 0,0 l/m 0 min 0 min 33 W/m 10,5 km/h (2 Bft)
22.09.2014 08:00 11,4 C 10,0 C 89 % 1019,5 hPa 0,0 l/m 0 min 0 min 31 W/m 10,5 km/h (2 Bft)
22.09.2014 08:02 11,4 C 10,0 C 89 % 1019,5 hPa 0,0 l/m 0 min 0 min 36 W/m 14,6 km/h (3 Bft)
22.09.2014 08:04 11,4 C 10,0 C 89 % 1019,5 hPa 0,0 l/m 0 min 0 min 42 W/m 12,6 km/h (3 Bft)
22.09.2014 08:06 11,4 C 10,0 C 89 % 1019,5 hPa 0,0 l/m 0 min 0 min 40 W/m 10,5 km/h (2 Bft)
22.09.2014 08:08 11,4 C 10,6 C 89 % 1019,6 hPa 0,0 l/m 0 min 0 min 37 W/m 10,5 km/h (2 Bft)
22.09.2014 08:10 11,4 C 10,6 C 89 % 1019,5 hPa 0,0 l/m 0 min 0 min 32 W/m 10,5 km/h (2 Bft)
22.09.2014 08:12 11,4 C 10,6 C 89 % 1019,6 hPa 0,0 l/m 0 min 0 min 32 W/m 8,4 km/h (2 Bft)
22.09.2014 08:14 11,4 C 10,6 C 89 % 1019,6 hPa 0,0 l/m 0 min 0 min 33 W/m 16,7 km/h (3 Bft)
22.09.2014 08:16 11,4 C 10,6 C 89 % 1019,6 hPa 0,0 l/m 0 min 0 min 35 W/m 10,5 km/h (2 Bft)
22.09.2014 08:18 11,4 C 10,6 C 89 % 1019,6 hPa 0,0 l/m 0 min 0 min 35 W/m 14,6 km/h (3 Bft)
22.09.2014 08:20 11,4 C 10,6 C 89 % 1019,7 hPa 0,0 l/m 0 min 0 min 33 W/m 12,6 km/h (3 Bft)
22.09.2014 08:22 11,5 C 10,6 C 89 % 1019,7 hPa 0,0 l/m 0 min 0 min 35 W/m 14,6 km/h (3 Bft)
22.09.2014 08:24 11,5 C 10,6 C 89 % 1019,7 hPa 0,0 l/m 0 min 0 min 41 W/m 10,5 km/h (2 Bft)
22.09.2014 08:26 11,5 C 10,6 C 89 % 1019,6 hPa 0,0 l/m 0 min 0 min 44 W/m 10,5 km/h (2 Bft)
22.09.2014 08:28 11,5 C 10,6 C 89 % 1019,6 hPa 0,0 l/m 0 min 0 min 39 W/m 10,5 km/h (2 Bft)
22.09.2014 08:30 11,5 C 10,6 C 90 % 1019,6 hPa 0,0 l/m 0 min 0 min 36 W/m 8,4 km/h (2 Bft)
22.09.2014 08:32 11,6 C 10,6 C 89 % 1019,7 hPa 0,0 l/m 0 min 0 min 37 W/m 16,7 km/h (3 Bft)
22.09.2014 08:34 11,6 C 11,1 C 89 % 1019,6 hPa 0,0 l/m 0 min 0 min 39 W/m 10,5 km/h (2 Bft)
22.09.2014 08:36 11,6 C 11,1 C 90 % 1019,7 hPa 0,0 l/m 0 min 0 min 39 W/m 20,9 km/h (4 Bft)
22.09.2014 08:38 11,6 C 11,1 C 89 % 1019,6 hPa 0,0 l/m 0 min 0 min 41 W/m 12,6 km/h (3 Bft)
22.09.2014 08:40 11,6 C 11,1 C 89 % 1019,7 hPa 0,0 l/m 0 min 0 min 35 W/m 10,5 km/h (2 Bft)
22.09.2014 08:42 11,6 C 11,1 C 89 % 1019,7 hPa 0,0 l/m 0 min 0 min 33 W/m 14,6 km/h (3 Bft)
22.09.2014 08:44 11,7 C 11,1 C 89 % 1019,6 hPa 0,0 l/m 0 min 0 min 33 W/m 16,7 km/h (3 Bft)
22.09.2014 08:46 11,7 C 11,1 C 89 % 1019,6 hPa 0,0 l/m 0 min 0 min 36 W/m 14,6 km/h (3 Bft)
22.09.2014 08:48 11,7 C 11,1 C 89 % 1019,7 hPa 0,0 l/m 0 min 0 min 38 W/m 16,7 km/h (3 Bft)
22.09.2014 08:50 11,7 C 11,1 C 89 % 1019,6 hPa 0,0 l/m 0 min 0 min 56 W/m 16,7 km/h (3 Bft)
22.09.2014 08:52 11,7 C 11,1 C 89 % 1019,6 hPa 0,0 l/m 0 min 0 min 71 W/m 14,6 km/h (3 Bft)
22.09.2014 08:54 11,7 C 11,1 C 89 % 1019,6 hPa 0,0 l/m 0 min 0 min 75 W/m 8,4 km/h (2 Bft)
22.09.2014 08:56 11,8 C 11,7 C 89 % 1019,6 hPa 0,0 l/m 0 min 0 min 73 W/m 12,6 km/h (3 Bft)
22.09.2014 08:58 11,8 C 11,7 C 89 % 1019,6 hPa 0,0 l/m 0 min 0 min 68 W/m 12,6 km/h (3 Bft)
22.09.2014 09:00 11,8 C 11,7 C 89 % 1019,6 hPa 0,0 l/m 0 min 0 min 62 W/m 14,6 km/h (3 Bft)
22.09.2014 09:02 11,9 C 11,7 C 88 % 1019,5 hPa 0,0 l/m 0 min 0 min 48 W/m 10,5 km/h (2 Bft)
22.09.2014 09:04 11,9 C 11,7 C 88 % 1019,5 hPa 0,0 l/m 0 min 0 min 45 W/m 14,6 km/h (3 Bft)
22.09.2014 09:06 11,9 C 11,7 C 88 % 1019,5 hPa 0,0 l/m 0 min 0 min 47 W/m 16,7 km/h (3 Bft)
22.09.2014 09:08 11,9 C 11,7 C 88 % 1019,7 hPa 0,0 l/m 0 min 0 min 47 W/m 18,8 km/h (3 Bft)
22.09.2014 09:10 12,0 C 11,7 C 88 % 1019,6 hPa 0,0 l/m 0 min 0 min 55 W/m 14,6 km/h (3 Bft)
22.09.2014 09:12 12,0 C 11,7 C 88 % 1019,6 hPa 0,0 l/m 0 min 0 min 68 W/m 12,6 km/h (3 Bft)
22.09.2014 09:14 12,1 C 11,7 C 88 % 1019,6 hPa 0,0 l/m 0 min 0 min 78 W/m 12,6 km/h (3 Bft)
22.09.2014 09:16 12,1 C 11,7 C 88 % 1019,5 hPa 0,0 l/m 0 min 0 min 85 W/m 12,6 km/h (3 Bft)
22.09.2014 09:18 12,1 C 11,7 C 88 % 1019,6 hPa 0,0 l/m 0 min 0 min 95 W/m 14,6 km/h (3 Bft)
22.09.2014 09:20 12,1 C 11,7 C 87 % 1019,6 hPa 0,0 l/m 0 min 0 min 99 W/m 12,6 km/h (3 Bft)
22.09.2014 09:22 12,2 C 11,7 C 87 % 1019,6 hPa 0,0 l/m 0 min 0 min 108 W/m 16,7 km/h (3 Bft)
22.09.2014 09:24 12,2 C 11,7 C 87 % 1019,6 hPa 0,0 l/m 0 min 0 min 115 W/m 12,6 km/h (3 Bft)
22.09.2014 09:26 12,2 C 11,7 C 87 % 1019,6 hPa 0,0 l/m 0 min 0 min 128 W/m 12,6 km/h (3 Bft)
22.09.2014 09:28 12,3 C 11,7 C 87 % 1019,6 hPa 0,0 l/m 0 min 0 min 134 W/m 20,9 km/h (4 Bft)
22.09.2014 09:30 12,3 C 11,7 C 87 % 1019,6 hPa 0,0 l/m 0 min 0 min 123 W/m 14,6 km/h (3 Bft)
22.09.2014 09:32 12,4 C 11,7 C 87 % 1019,5 hPa 0,0 l/m 0 min 0 min 124 W/m 16,7 km/h (3 Bft)
22.09.2014 09:34 12,4 C 11,7 C 87 % 1019,5 hPa 0,0 l/m 2 min 0 min 176 W/m 18,8 km/h (3 Bft)
22.09.2014 09:36 12,4 C 11,7 C 87 % 1019,6 hPa 0,0 l/m 2 min 0 min 284 W/m 20,9 km/h (4 Bft)
22.09.2014 09:38 12,4 C 11,7 C 87 % 1019,6 hPa 0,0 l/m 2 min 0 min 300 W/m 16,7 km/h (3 Bft)
22.09.2014 09:40 12,5 C 12,2 C 87 % 1019,6 hPa 0,0 l/m 2 min 0 min 343 W/m 14,6 km/h (3 Bft)
22.09.2014 09:42 12,6 C 12,2 C 87 % 1019,6 hPa 0,0 l/m 2 min 0 min 260 W/m 12,6 km/h (3 Bft)
22.09.2014 09:44 12,7 C 12,8 C 87 % 1019,5 hPa 0,0 l/m 2 min 0 min 253 W/m 16,7 km/h (3 Bft)
22.09.2014 09:46 12,7 C 12,8 C 87 % 1019,5 hPa 0,0 l/m 2 min 0 min 255 W/m 16,7 km/h (3 Bft)
22.09.2014 09:48 12,8 C 12,8 C 87 % 1019,5 hPa 0,0 l/m 2 min 0 min 229 W/m 18,8 km/h (3 Bft)
22.09.2014 09:50 12,9 C 12,8 C 87 % 1019,5 hPa 0,0 l/m 2 min 0 min 236 W/m 20,9 km/h (4 Bft)
22.09.2014 09:52 13,0 C 12,8 C 86 % 1019,5 hPa 0,0 l/m 2 min 0 min 232 W/m 20,9 km/h (4 Bft)
22.09.2014 09:54 13,1 C 12,8 C 86 % 1019,5 hPa 0,0 l/m 2 min 0 min 202 W/m 18,8 km/h (3 Bft)
22.09.2014 09:56 13,2 C 12,8 C 86 % 1019,6 hPa 0,0 l/m 0 min 0 min 188 W/m 25,1 km/h (4 Bft)
22.09.2014 09:58 13,2 C 12,8 C 85 % 1019,4 hPa 0,0 l/m 2 min 0 min 200 W/m 16,7 km/h (3 Bft)
22.09.2014 10:00 13,3 C 12,8 C 85 % 1019,4 hPa 0,0 l/m 2 min 0 min 207 W/m 16,7 km/h (3 Bft)
22.09.2014 10:02 13,4 C 12,8 C 85 % 1019,4 hPa 0,0 l/m 0 min 0 min 174 W/m 18,8 km/h (3 Bft)
22.09.2014 10:04 13,4 C 12,8 C 85 % 1019,3 hPa 0,0 l/m 0 min 0 min 141 W/m 12,6 km/h (3 Bft)
22.09.2014 10:06 13,4 C 12,8 C 85 % 1019,4 hPa 0,0 l/m 0 min 0 min 130 W/m 14,6 km/h (3 Bft)
22.09.2014 10:08 13,5 C 12,8 C 85 % 1019,3 hPa 0,0 l/m 0 min 0 min 132 W/m 16,7 km/h (3 Bft)
22.09.2014 10:10 13,6 C 12,8 C 84 % 1019,3 hPa 0,0 l/m 0 min 0 min 141 W/m 14,6 km/h (3 Bft)
22.09.2014 10:12 13,6 C 12,8 C 84 % 1019,4 hPa 0,0 l/m 0 min 0 min 144 W/m 18,8 km/h (3 Bft)
22.09.2014 10:14 13,6 C 12,8 C 84 % 1019,3 hPa 0,0 l/m 0 min 0 min 151 W/m 10,5 km/h (2 Bft)
22.09.2014 10:16 13,6 C 12,8 C 83 % 1019,3 hPa 0,0 l/m 0 min 0 min 164 W/m 18,8 km/h (3 Bft)
22.09.2014 10:18 13,7 C 12,8 C 83 % 1019,2 hPa 0,0 l/m 0 min 0 min 169 W/m 12,6 km/h (3 Bft)
22.09.2014 10:20 13,7 C 12,8 C 84 % 1019,2 hPa 0,0 l/m 0 min 0 min 176 W/m 16,7 km/h (3 Bft)
22.09.2014 10:22 13,7 C 12,8 C 83 % 1019,1 hPa 0,0 l/m 0 min 0 min 199 W/m 10,5 km/h (2 Bft)
22.09.2014 10:24 13,7 C 13,3 C 83 % 1019,1 hPa 0,0 l/m 2 min 0 min 257 W/m 16,7 km/h (3 Bft)
22.09.2014 10:26 13,7 C 13,3 C 84 % 1019,2 hPa 0,0 l/m 2 min 0 min 309 W/m 14,6 km/h (3 Bft)
22.09.2014 10:28 13,8 C 13,3 C 84 % 1019,2 hPa 0,0 l/m 2 min 0 min 273 W/m 18,8 km/h (3 Bft)
22.09.2014 10:30 13,8 C 13,3 C 83 % 1019,2 hPa 0,0 l/m 2 min 0 min 240 W/m 12,6 km/h (3 Bft)
22.09.2014 10:32 13,9 C 13,3 C 83 % 1019,1 hPa 0,0 l/m 2 min 0 min 259 W/m 20,9 km/h (4 Bft)
22.09.2014 10:34 13,9 C 13,3 C 83 % 1019,2 hPa 0,0 l/m 2 min 0 min 256 W/m 23,0 km/h (4 Bft)
22.09.2014 10:36 14,0 C 13,3 C 83 % 1019,2 hPa 0,0 l/m 2 min 0 min 296 W/m 18,8 km/h (3 Bft)
22.09.2014 10:38 14,1 C 13,9 C 83 % 1019,0 hPa 0,0 l/m 2 min 0 min 316 W/m 20,9 km/h (4 Bft)
22.09.2014 10:40 14,2 C 13,9 C 83 % 1019,1 hPa 0,0 l/m 2 min 0 min 294 W/m 27,2 km/h (4 Bft)
22.09.2014 10:42 14,2 C 13,9 C 82 % 1019,0 hPa 0,0 l/m 0 min 0 min 224 W/m 20,9 km/h (4 Bft)
22.09.2014 10:44 14,2 C 13,9 C 82 % 1019,1 hPa 0,0 l/m 2 min 0 min 270 W/m 20,9 km/h (4 Bft)
22.09.2014 10:46 14,2 C 13,9 C 82 % 1019,1 hPa 0,0 l/m 2 min 0 min 292 W/m 20,9 km/h (4 Bft)
22.09.2014 10:48 14,3 C 13,9 C 82 % 1019,0 hPa 0,0 l/m 2 min 0 min 309 W/m 33,5 km/h (5 Bft)
22.09.2014 10:50 14,4 C 13,9 C 82 % 1019,1 hPa 0,0 l/m 2 min 0 min 419 W/m 29,3 km/h (5 Bft)
22.09.2014 10:52 14,5 C 14,4 C 82 % 1019,1 hPa 0,0 l/m 2 min 0 min 508 W/m 20,9 km/h (4 Bft)
22.09.2014 10:54 14,6 C 14,4 C 81 % 1019,1 hPa 0,0 l/m 2 min 0 min 405 W/m 16,7 km/h (3 Bft)
22.09.2014 10:56 14,7 C 14,4 C 81 % 1019,0 hPa 0,0 l/m 2 min 0 min 254 W/m 25,1 km/h (4 Bft)
22.09.2014 10:58 14,8 C 14,4 C 81 % 1019,1 hPa 0,0 l/m 2 min 0 min 249 W/m 20,9 km/h (4 Bft)
22.09.2014 11:00 14,8 C 14,4 C 81 % 1019,0 hPa 0,0 l/m 2 min 0 min 252 W/m 20,9 km/h (4 Bft)
22.09.2014 11:02 14,9 C 13,9 C 80 % 1018,9 hPa 0,0 l/m 2 min 0 min 260 W/m 23,0 km/h (4 Bft)
22.09.2014 11:04 14,9 C 14,4 C 79 % 1019,1 hPa 0,0 l/m 2 min 0 min 359 W/m 29,3 km/h (5 Bft)
22.09.2014 11:06 15,0 C 14,4 C 79 % 1019,0 hPa 0,0 l/m 2 min 0 min 644 W/m 23,0 km/h (4 Bft)
22.09.2014 11:08 15,1 C 15,0 C 79 % 1019,0 hPa 0,0 l/m 2 min 0 min 704 W/m 35,6 km/h (5 Bft)
22.09.2014 11:10 15,2 C 15,0 C 79 % 1019,1 hPa 0,0 l/m 2 min 0 min 511 W/m 25,1 km/h (4 Bft)
22.09.2014 11:12 15,3 C 15,0 C 78 % 1019,0 hPa 0,0 l/m 2 min 0 min 311 W/m 27,2 km/h (4 Bft)
22.09.2014 11:14 15,4 C 15,0 C 77 % 1019,1 hPa 0,0 l/m 2 min 0 min 294 W/m 27,2 km/h (4 Bft)
22.09.2014 11:16 15,4 C 15,0 C 77 % 1019,0 hPa 0,0 l/m 2 min 0 min 261 W/m 33,5 km/h (5 Bft)
22.09.2014 11:18 15,4 C 14,4 C 76 % 1019,0 hPa 0,0 l/m 0 min 0 min 226 W/m 23,0 km/h (4 Bft)
22.09.2014 11:20 15,5 C 14,4 C 76 % 1019,0 hPa 0,0 l/m 0 min 0 min 207 W/m 23,0 km/h (4 Bft)
22.09.2014 11:22 15,5 C 14,4 C 76 % 1019,0 hPa 0,0 l/m 0 min 0 min 209 W/m 25,1 km/h (4 Bft)
22.09.2014 11:24 15,4 C 14,4 C 75 % 1019,0 hPa 0,0 l/m 0 min 0 min 219 W/m 25,1 km/h (4 Bft)
22.09.2014 11:26 15,4 C 14,4 C 75 % 1019,1 hPa 0,0 l/m 0 min 0 min 232 W/m 23,0 km/h (4 Bft)
22.09.2014 11:28 15,4 C 14,4 C 76 % 1019,1 hPa 0,0 l/m 0 min 0 min 233 W/m 18,8 km/h (3 Bft)
22.09.2014 11:30 15,4 C 14,4 C 76 % 1019,2 hPa 0,0 l/m 0 min 0 min 211 W/m 23,0 km/h (4 Bft)
22.09.2014 11:32 15,4 C 14,4 C 76 % 1019,0 hPa 0,0 l/m 0 min 0 min 237 W/m 25,1 km/h (4 Bft)
22.09.2014 11:34 15,4 C 14,4 C 75 % 1019,0 hPa 0,0 l/m 2 min 0 min 297 W/m 23,0 km/h (4 Bft)
22.09.2014 11:36 15,4 C 14,4 C 75 % 1018,9 hPa 0,0 l/m 2 min 0 min 319 W/m 25,1 km/h (4 Bft)
22.09.2014 11:38 15,4 C 14,4 C 74 % 1019,1 hPa 0,0 l/m 2 min 0 min 350 W/m 29,3 km/h (5 Bft)
22.09.2014 11:40 15,4 C 15,0 C 75 % 1019,1 hPa 0,0 l/m 2 min 0 min 373 W/m 25,1 km/h (4 Bft)
22.09.2014 11:42 15,4 C 15,0 C 74 % 1019,0 hPa 0,0 l/m 2 min 0 min 312 W/m 29,3 km/h (5 Bft)
22.09.2014 11:44 15,5 C 15,0 C 73 % 1019,1 hPa 0,0 l/m 0 min 0 min 271 W/m 27,2 km/h (4 Bft)
22.09.2014 11:46 15,5 C 15,0 C 73 % 1019,0 hPa 0,0 l/m 0 min 0 min 259 W/m 27,2 km/h (4 Bft)
22.09.2014 11:48 15,5 C 15,0 C 73 % 1018,9 hPa 0,0 l/m 0 min 0 min 265 W/m 20,9 km/h (4 Bft)
22.09.2014 11:50 15,6 C 15,0 C 73 % 1018,9 hPa 0,0 l/m 2 min 0 min 322 W/m 25,1 km/h (4 Bft)
22.09.2014 11:52 15,6 C 15,0 C 74 % 1018,8 hPa 0,0 l/m 2 min 0 min 408 W/m 29,3 km/h (5 Bft)
22.09.2014 11:54 15,7 C 15,6 C 74 % 1018,8 hPa 0,0 l/m 2 min 0 min 676 W/m 25,1 km/h (4 Bft)
22.09.2014 11:56 15,8 C 15,6 C 73 % 1018,9 hPa 0,0 l/m 2 min 0 min 410 W/m 35,6 km/h (5 Bft)
22.09.2014 11:58 15,9 C 15,0 C 72 % 1019,0 hPa 0,0 l/m 0 min 0 min 261 W/m 27,2 km/h (4 Bft)
22.09.2014 12:00 15,9 C 15,0 C 72 % 1019,1 hPa 0,0 l/m 0 min 0 min 207 W/m 27,2 km/h (4 Bft)
22.09.2014 12:02 15,9 C 15,0 C 72 % 1019,2 hPa 0,0 l/m 0 min 0 min 169 W/m 33,5 km/h (5 Bft)
22.09.2014 12:05 15,9 C 14,4 C 71 % 1019,1 hPa 0,0 l/m 0 min 0 min 194 W/m 27,2 km/h (4 Bft)
22.09.2014 12:06 15,9 C 14,4 C 71 % 1019,1 hPa 0,0 l/m 0 min 0 min 234 W/m 27,2 km/h (4 Bft)
22.09.2014 12:08 15,9 C 14,4 C 70 % 1018,9 hPa 0,0 l/m 0 min 0 min 277 W/m 25,1 km/h (4 Bft)
22.09.2014 12:10 15,9 C 14,4 C 70 % 1019,0 hPa 0,0 l/m 0 min 0 min 256 W/m 31,4 km/h (5 Bft)
22.09.2014 12:12 15,9 C 15,0 C 71 % 1019,1 hPa 0,0 l/m 0 min 0 min 247 W/m 25,1 km/h (4 Bft)
22.09.2014 12:14 15,8 C 15,0 C 71 % 1019,0 hPa 0,0 l/m 2 min 0 min 313 W/m 25,1 km/h (4 Bft)
22.09.2014 12:16 15,9 C 15,0 C 71 % 1018,9 hPa 0,0 l/m 2 min 0 min 358 W/m 29,3 km/h (5 Bft)
22.09.2014 12:18 15,9 C 15,0 C 72 % 1018,9 hPa 0,0 l/m 2 min 0 min 353 W/m 29,3 km/h (5 Bft)
22.09.2014 12:20 15,9 C 15,0 C 72 % 1018,8 hPa 0,0 l/m 0 min 0 min 266 W/m 23,0 km/h (4 Bft)
22.09.2014 12:22 15,9 C 15,0 C 72 % 1018,8 hPa 0,0 l/m 0 min 0 min 201 W/m 25,1 km/h (4 Bft)
22.09.2014 12:24 15,9 C 15,0 C 71 % 1018,8 hPa 0,0 l/m 0 min 0 min 181 W/m 29,3 km/h (5 Bft)
22.09.2014 12:26 15,9 C 14,4 C 70 % 1018,8 hPa 0,0 l/m 0 min 0 min 176 W/m 33,5 km/h (5 Bft)
22.09.2014 12:28 15,9 C 14,4 C 70 % 1018,9 hPa 0,0 l/m 0 min 0 min 164 W/m 25,1 km/h (4 Bft)
22.09.2014 12:30 15,8 C 14,4 C 69 % 1019,0 hPa 0,0 l/m 0 min 0 min 141 W/m 29,3 km/h (5 Bft)
22.09.2014 12:32 15,8 C 14,4 C 70 % 1019,1 hPa 0,0 l/m 0 min 0 min 121 W/m 25,1 km/h (4 Bft)
22.09.2014 12:34 15,7 C 13,9 C 70 % 1019,0 hPa 0,0 l/m 0 min 0 min 91 W/m 23,0 km/h (4 Bft)
22.09.2014 12:36 15,7 C 13,9 C 71 % 1019,1 hPa 0,0 l/m 0 min 2 min 85 W/m 25,1 km/h (4 Bft)
22.09.2014 12:38 15,6 C 13,3 C 72 % 1019,0 hPa 0,0 l/m 0 min 2 min 87 W/m 29,3 km/h (5 Bft)
22.09.2014 12:40 15,6 C 13,3 C 72 % 1019,1 hPa 0,0 l/m 0 min 0 min 91 W/m 35,6 km/h (5 Bft)
22.09.2014 12:42 15,4 C 12,8 C 72 % 1018,8 hPa 0,0 l/m 0 min 2 min 125 W/m 25,1 km/h (4 Bft)
22.09.2014 12:44 15,3 C 12,8 C 73 % 1018,8 hPa 0,0 l/m 0 min 0 min 218 W/m 27,2 km/h (4 Bft)
22.09.2014 12:46 15,3 C 13,3 C 73 % 1018,8 hPa 0,0 l/m 2 min 0 min 363 W/m 27,2 km/h (4 Bft)
22.09.2014 12:48 15,4 C 14,4 C 74 % 1019,1 hPa 0,0 l/m 2 min 0 min 767 W/m 29,3 km/h (5 Bft)
22.09.2014 12:50 15,4 C 14,4 C 73 % 1019,1 hPa 0,0 l/m 2 min 0 min 727 W/m 33,5 km/h (5 Bft)
22.09.2014 12:52 15,4 C 15,0 C 72 % 1019,0 hPa 0,0 l/m 2 min 0 min 348 W/m 48,1 km/h (6 Bft)
22.09.2014 12:54 15,5 C 15,0 C 71 % 1018,9 hPa 0,0 l/m 2 min 0 min 406 W/m 29,3 km/h (5 Bft)
22.09.2014 12:56 15,6 C 15,6 C 71 % 1018,9 hPa 0,0 l/m 2 min 0 min 541 W/m 27,2 km/h (4 Bft)
22.09.2014 12:58 15,7 C 15,0 C 71 % 1018,9 hPa 0,0 l/m 0 min 0 min 299 W/m 25,1 km/h (4 Bft)
22.09.2014 13:00 15,7 C 15,0 C 71 % 1019,1 hPa 0,0 l/m 0 min 0 min 135 W/m 33,5 km/h (5 Bft)
22.09.2014 13:02 15,7 C 14,4 C 70 % 1019,1 hPa 0,0 l/m 0 min 0 min 86 W/m 25,1 km/h (4 Bft)
22.09.2014 13:04 15,7 C 13,9 C 70 % 1019,2 hPa 0,0 l/m 0 min 0 min 67 W/m 23,0 km/h (4 Bft)
22.09.2014 13:06 15,7 C 13,9 C 69 % 1019,5 hPa 0,0 l/m 0 min 0 min 50 W/m 35,6 km/h (5 Bft)
22.09.2014 13:08 15,5 C 12,8 C 70 % 1019,7 hPa 0,0 l/m 0 min 2 min 33 W/m 46,0 km/h (6 Bft)
22.09.2014 13:10 15,1 C 11,1 C 73 % 1019,9 hPa 0,2 l/m 0 min 2 min 31 W/m 35,6 km/h (5 Bft)
22.09.2014 13:12 14,6 C 9,4 C 75 % 1020,0 hPa 0,6 l/m 0 min 2 min 35 W/m 58,6 km/h (7 Bft)
22.09.2014 13:14 14,0 C 9,4 C 77 % 1019,8 hPa 1,2 l/m 0 min 2 min 42 W/m 35,6 km/h (5 Bft)
22.09.2014 13:16 13,3 C 9,4 C 80 % 1019,8 hPa 0,2 l/m 0 min 2 min 50 W/m 33,5 km/h (5 Bft)
22.09.2014 13:18 12,8 C 9,4 C 81 % 1019,8 hPa 0,4 l/m 0 min 2 min 53 W/m 43,9 km/h (6 Bft)
22.09.2014 13:20 12,3 C 9,4 C 83 % 1019,7 hPa 0,2 l/m 0 min 2 min 89 W/m 31,4 km/h (5 Bft)
22.09.2014 13:22 11,9 C 9,4 C 85 % 1019,7 hPa 0,0 l/m 0 min 2 min 127 W/m 27,2 km/h (4 Bft)
22.09.2014 13:24 11,7 C 9,4 C 87 % 1019,7 hPa 0,0 l/m 0 min 2 min 151 W/m 25,1 km/h (4 Bft)
22.09.2014 13:26 11,6 C 10,0 C 88 % 1019,6 hPa 0,0 l/m 0 min 2 min 207 W/m 20,9 km/h (4 Bft)
22.09.2014 13:28 11,6 C 10,0 C 90 % 1019,5 hPa 0,0 l/m 0 min 2 min 207 W/m 23,0 km/h (4 Bft)
22.09.2014 13:30 11,6 C 10,6 C 91 % 1019,6 hPa 0,0 l/m 0 min 0 min 236 W/m 23,0 km/h (4 Bft)
22.09.2014 13:32 11,8 C 11,1 C 92 % 1019,5 hPa 0,0 l/m 2 min 0 min 330 W/m 23,0 km/h (4 Bft)
22.09.2014 13:34 12,1 C 11,7 C 93 % 1019,5 hPa 0,0 l/m 2 min 0 min 599 W/m 27,2 km/h (4 Bft)
22.09.2014 13:36 12,3 C 11,7 C 93 % 1019,6 hPa 0,0 l/m 0 min 0 min 278 W/m 25,1 km/h (4 Bft)
22.09.2014 13:38 12,4 C 11,7 C 93 % 1019,6 hPa 0,0 l/m 0 min 0 min 186 W/m 14,6 km/h (3 Bft)
22.09.2014 13:40 12,4 C 11,7 C 93 % 1019,6 hPa 0,0 l/m 0 min 0 min 210 W/m 23,0 km/h (4 Bft)
22.09.2014 13:42 12,6 C 11,7 C 94 % 1019,7 hPa 0,0 l/m 2 min 0 min 477 W/m 27,2 km/h (4 Bft)
22.09.2014 13:44 12,8 C 12,2 C 94 % 1019,7 hPa 0,0 l/m 2 min 0 min 599 W/m 14,6 km/h (3 Bft)
22.09.2014 13:46 12,8 C 11,7 C 94 % 1019,6 hPa 0,0 l/m 0 min 0 min 245 W/m 25,1 km/h (4 Bft)
22.09.2014 13:48 12,8 C 11,7 C 93 % 1019,6 hPa 0,0 l/m 0 min 0 min 202 W/m 20,9 km/h (4 Bft)
22.09.2014 13:50 12,8 C 12,2 C 93 % 1019,6 hPa 0,0 l/m 0 min 0 min 207 W/m 16,7 km/h (3 Bft)
22.09.2014 13:52 13,1 C 12,2 C 93 % 1019,6 hPa 0,0 l/m 0 min 0 min 207 W/m 16,7 km/h (3 Bft)
22.09.2014 13:54 13,4 C 12,8 C 93 % 1019,5 hPa 0,0 l/m 2 min 0 min 627 W/m 16,7 km/h (3 Bft)
22.09.2014 13:56 13,7 C 12,8 C 94 % 1019,5 hPa 0,0 l/m 2 min 0 min 659 W/m 18,8 km/h (3 Bft)
22.09.2014 13:58 14,0 C 13,3 C 94 % 1019,5 hPa 0,0 l/m 2 min 0 min 667 W/m 16,7 km/h (3 Bft)
22.09.2014 14:00 14,2 C 13,3 C 93 % 1019,4 hPa 0,0 l/m 2 min 0 min 662 W/m 18,8 km/h (3 Bft)
22.09.2014 14:02 14,2 C 13,3 C 93 % 1019,4 hPa 0,0 l/m 2 min 0 min 645 W/m 25,1 km/h (4 Bft)
22.09.2014 14:04 14,2 C 13,3 C 91 % 1019,4 hPa 0,0 l/m 2 min 0 min 632 W/m 23,0 km/h (4 Bft)
22.09.2014 14:06 14,4 C 13,3 C 91 % 1019,2 hPa 0,0 l/m 2 min 0 min 652 W/m 14,6 km/h (3 Bft)
22.09.2014 14:08 14,6 C 13,9 C 90 % 1019,2 hPa 0,0 l/m 2 min 0 min 708 W/m 14,6 km/h (3 Bft)
22.09.2014 14:10 15,0 C 13,9 C 90 % 1019,3 hPa 0,0 l/m 2 min 0 min 751 W/m 14,6 km/h (3 Bft)
22.09.2014 14:12 15,1 C 13,9 C 89 % 1019,3 hPa 0,0 l/m 2 min 0 min 491 W/m 20,9 km/h (4 Bft)
22.09.2014 14:14 14,9 C 13,3 C 86 % 1019,3 hPa 0,0 l/m 0 min 0 min 202 W/m 16,7 km/h (3 Bft)
22.09.2014 14:16 14,7 C 13,3 C 85 % 1019,4 hPa 0,0 l/m 0 min 2 min 134 W/m 29,3 km/h (5 Bft)
22.09.2014 14:18 14,6 C 11,7 C 85 % 1019,6 hPa 0,4 l/m 0 min 2 min 84 W/m 50,2 km/h (7 Bft)
22.09.2014 14:20 14,2 C 10,6 C 84 % 1019,6 hPa 0,8 l/m 0 min 2 min 55 W/m 39,7 km/h (6 Bft)
22.09.2014 14:22 13,7 C 10,0 C 84 % 1019,6 hPa 0,0 l/m 0 min 2 min 58 W/m 29,3 km/h (5 Bft)
22.09.2014 14:24 13,2 C 10,0 C 84 % 1019,6 hPa 0,0 l/m 0 min 2 min 81 W/m 25,1 km/h (4 Bft)
22.09.2014 14:26 12,9 C 10,6 C 86 % 1019,5 hPa 0,0 l/m 0 min 0 min 90 W/m 23,0 km/h (4 Bft)
22.09.2014 14:28 12,8 C 10,6 C 87 % 1019,6 hPa 0,0 l/m 2 min 0 min 500 W/m 31,4 km/h (5 Bft)
22.09.2014 14:30 12,8 C 10,6 C 87 % 1019,6 hPa 0,0 l/m 2 min 0 min 574 W/m 25,1 km/h (4 Bft)
22.09.2014 14:32 12,8 C 10,6 C 87 % 1019,6 hPa 0,0 l/m 2 min 0 min 567 W/m 20,9 km/h (4 Bft)
22.09.2014 14:34 13,0 C 11,1 C 88 % 1019,6 hPa 0,0 l/m 2 min 0 min 565 W/m 14,6 km/h (3 Bft)
22.09.2014 14:36 13,2 C 11,1 C 89 % 1019,5 hPa 0,0 l/m 2 min 0 min 558 W/m 27,2 km/h (4 Bft)
22.09.2014 14:38 13,4 C 11,1 C 88 % 1019,6 hPa 0,0 l/m 2 min 0 min 555 W/m 23,0 km/h (4 Bft)
22.09.2014 14:40 13,6 C 11,7 C 88 % 1019,5 hPa 0,0 l/m 2 min 0 min 556 W/m 23,0 km/h (4 Bft)
22.09.2014 14:42 13,9 C 11,7 C 88 % 1019,5 hPa 0,0 l/m 2 min 0 min 559 W/m 23,0 km/h (4 Bft)
22.09.2014 14:44 14,1 C 11,7 C 85 % 1019,5 hPa 0,0 l/m 2 min 0 min 562 W/m 16,7 km/h (3 Bft)
22.09.2014 14:46 14,2 C 11,7 C 84 % 1019,5 hPa 0,0 l/m 2 min 0 min 560 W/m 25,1 km/h (4 Bft)
22.09.2014 14:48 14,2 C 11,7 C 83 % 1019,5 hPa 0,0 l/m 2 min 0 min 562 W/m 23,0 km/h (4 Bft)
22.09.2014 14:50 14,4 C 11,7 C 81 % 1019,6 hPa 0,0 l/m 2 min 0 min 559 W/m 33,5 km/h (5 Bft)
22.09.2014 14:52 14,4 C 11,7 C 78 % 1019,4 hPa 0,0 l/m 2 min 0 min 556 W/m 37,7 km/h (5 Bft)
22.09.2014 14:54 14,6 C 11,7 C 78 % 1019,5 hPa 0,0 l/m 2 min 0 min 555 W/m 29,3 km/h (5 Bft)
22.09.2014 14:56 14,7 C 11,7 C 78 % 1019,5 hPa 0,0 l/m 2 min 0 min 559 W/m 27,2 km/h (4 Bft)
22.09.2014 14:58 14,8 C 12,2 C 77 % 1019,5 hPa 0,0 l/m 2 min 0 min 558 W/m 27,2 km/h (4 Bft)
22.09.2014 15:00 14,9 C 12,2 C 78 % 1019,5 hPa 0,0 l/m 2 min 0 min 562 W/m 18,8 km/h (3 Bft)
22.09.2014 15:02 15,1 C 12,2 C 77 % 1019,4 hPa 0,0 l/m 2 min 0 min 566 W/m 29,3 km/h (5 Bft)
22.09.2014 15:04 15,2 C 12,2 C 76 % 1019,4 hPa 0,0 l/m 2 min 0 min 569 W/m 25,1 km/h (4 Bft)
22.09.2014 15:06 15,3 C 12,2 C 76 % 1019,5 hPa 0,0 l/m 2 min 0 min 572 W/m 20,9 km/h (4 Bft)
22.09.2014 15:08 15,4 C 12,8 C 74 % 1019,4 hPa 0,0 l/m 2 min 0 min 569 W/m 20,9 km/h (4 Bft)
22.09.2014 15:10 15,6 C 12,8 C 74 % 1019,5 hPa 0,0 l/m 2 min 0 min 570 W/m 35,6 km/h (5 Bft)
22.09.2014 15:12 15,7 C 12,2 C 72 % 1019,5 hPa 0,0 l/m 2 min 0 min 568 W/m 37,7 km/h (5 Bft)
22.09.2014 15:14 15,7 C 12,2 C 69 % 1019,6 hPa 0,0 l/m 2 min 0 min 566 W/m 29,3 km/h (5 Bft)
22.09.2014 15:16 15,7 C 12,2 C 70 % 1019,5 hPa 0,0 l/m 2 min 0 min 567 W/m 29,3 km/h (5 Bft)
22.09.2014 15:18 15,7 C 12,2 C 69 % 1019,7 hPa 0,0 l/m 2 min 0 min 562 W/m 29,3 km/h (5 Bft)
22.09.2014 15:20 15,8 C 12,2 C 68 % 1019,5 hPa 0,0 l/m 2 min 0 min 565 W/m 29,3 km/h (5 Bft)
22.09.2014 15:22 15,8 C 12,2 C 68 % 1019,6 hPa 0,0 l/m 2 min 0 min 560 W/m 33,5 km/h (5 Bft)
22.09.2014 15:24 15,8 C 12,2 C 67 % 1019,5 hPa 0,0 l/m 2 min 0 min 556 W/m 31,4 km/h (5 Bft)
22.09.2014 15:26 15,7 C 12,2 C 68 % 1019,5 hPa 0,0 l/m 2 min 0 min 554 W/m 33,5 km/h (5 Bft)
22.09.2014 15:28 15,7 C 12,2 C 68 % 1019,4 hPa 0,0 l/m 2 min 0 min 550 W/m 25,1 km/h (4 Bft)
22.09.2014 15:30 15,8 C 12,2 C 69 % 1019,5 hPa 0,0 l/m 2 min 0 min 548 W/m 35,6 km/h (5 Bft)
22.09.2014 15:32 15,9 C 12,8 C 69 % 1019,5 hPa 0,0 l/m 2 min 0 min 542 W/m 33,5 km/h (5 Bft)
22.09.2014 15:34 15,9 C 12,8 C 67 % 1019,6 hPa 0,0 l/m 2 min 0 min 541 W/m 33,5 km/h (5 Bft)
22.09.2014 15:36 16,0 C 12,8 C 65 % 1019,7 hPa 0,0 l/m 2 min 0 min 537 W/m 31,4 km/h (5 Bft)
22.09.2014 15:38 16,0 C 13,3 C 65 % 1019,5 hPa 0,0 l/m 2 min 0 min 531 W/m 37,7 km/h (5 Bft)
22.09.2014 15:40 16,1 C 13,3 C 64 % 1019,5 hPa 0,0 l/m 2 min 0 min 533 W/m 33,5 km/h (5 Bft)
22.09.2014 15:42 16,2 C 13,3 C 65 % 1019,5 hPa 0,0 l/m 2 min 0 min 533 W/m 25,1 km/h (4 Bft)
22.09.2014 15:44 16,2 C 13,9 C 65 % 1019,7 hPa 0,0 l/m 2 min 0 min 530 W/m 33,5 km/h (5 Bft)
22.09.2014 15:46 16,3 C 13,9 C 66 % 1019,7 hPa 0,0 l/m 2 min 0 min 520 W/m 23,0 km/h (4 Bft)
22.09.2014 15:48 16,3 C 13,9 C 65 % 1019,5 hPa 0,0 l/m 2 min 0 min 518 W/m 25,1 km/h (4 Bft)
22.09.2014 15:50 16,4 C 13,9 C 65 % 1019,6 hPa 0,0 l/m 2 min 0 min 510 W/m 29,3 km/h (5 Bft)
22.09.2014 15:52 16,4 C 13,9 C 64 % 1019,7 hPa 0,0 l/m 2 min 0 min 502 W/m 33,5 km/h (5 Bft)
22.09.2014 15:54 16,4 C 13,9 C 63 % 1019,5 hPa 0,0 l/m 2 min 0 min 502 W/m 27,2 km/h (4 Bft)
22.09.2014 15:56 16,4 C 14,4 C 64 % 1019,6 hPa 0,0 l/m 2 min 0 min 496 W/m 29,3 km/h (5 Bft)
22.09.2014 15:58 16,4 C 14,4 C 65 % 1019,5 hPa 0,0 l/m 2 min 0 min 490 W/m 27,2 km/h (4 Bft)
22.09.2014 16:00 16,4 C 14,4 C 65 % 1019,6 hPa 0,0 l/m 2 min 0 min 481 W/m 27,2 km/h (4 Bft)
22.09.2014 16:02 16,5 C 14,4 C 66 % 1019,6 hPa 0,0 l/m 2 min 0 min 482 W/m 29,3 km/h (5 Bft)
22.09.2014 16:04 16,5 C 14,4 C 65 % 1019,6 hPa 0,0 l/m 2 min 0 min 455 W/m 31,4 km/h (5 Bft)
22.09.2014 16:06 16,5 C 15,0 C 65 % 1019,6 hPa 0,0 l/m 2 min 0 min 487 W/m 25,1 km/h (4 Bft)
22.09.2014 16:08 16,6 C 15,0 C 65 % 1019,7 hPa 0,0 l/m 2 min 0 min 463 W/m 31,4 km/h (5 Bft)
22.09.2014 16:10 16,6 C 15,0 C 66 % 1019,7 hPa 0,0 l/m 2 min 0 min 480 W/m 18,8 km/h (3 Bft)
22.09.2014 16:12 16,6 C 15,0 C 65 % 1019,7 hPa 0,0 l/m 2 min 0 min 478 W/m 27,2 km/h (4 Bft)
22.09.2014 16:14 16,6 C 15,0 C 66 % 1019,6 hPa 0,0 l/m 2 min 0 min 474 W/m 18,8 km/h (3 Bft)
22.09.2014 16:16 16,7 C 15,0 C 66 % 1019,6 hPa 0,0 l/m 2 min 0 min 475 W/m 25,1 km/h (4 Bft)
22.09.2014 16:18 16,7 C 15,0 C 66 % 1019,6 hPa 0,0 l/m 2 min 0 min 426 W/m 27,2 km/h (4 Bft)
22.09.2014 16:20 16,7 C 15,6 C 66 % 1019,7 hPa 0,0 l/m 2 min 0 min 516 W/m 33,5 km/h (5 Bft)
22.09.2014 16:22 16,7 C 15,0 C 66 % 1019,7 hPa 0,0 l/m 2 min 0 min 263 W/m 27,2 km/h (4 Bft)
22.09.2014 16:24 16,7 C 14,4 C 65 % 1019,7 hPa 0,0 l/m 0 min 0 min 163 W/m 29,3 km/h (5 Bft)
22.09.2014 16:26 16,6 C 14,4 C 65 % 1019,6 hPa 0,0 l/m 0 min 0 min 132 W/m 16,7 km/h (3 Bft)
22.09.2014 16:28 16,6 C 14,4 C 66 % 1019,7 hPa 0,0 l/m 0 min 0 min 119 W/m 33,5 km/h (5 Bft)
22.09.2014 16:30 16,5 C 13,9 C 66 % 1019,6 hPa 0,0 l/m 0 min 0 min 129 W/m 16,7 km/h (3 Bft)
22.09.2014 16:32 16,4 C 13,9 C 67 % 1019,6 hPa 0,0 l/m 0 min 0 min 153 W/m 18,8 km/h (3 Bft)
22.09.2014 16:34 16,4 C 13,9 C 68 % 1019,6 hPa 0,0 l/m 2 min 0 min 368 W/m 14,6 km/h (3 Bft)
22.09.2014 16:36 16,3 C 14,4 C 68 % 1019,6 hPa 0,0 l/m 2 min 0 min 359 W/m 20,9 km/h (4 Bft)
22.09.2014 16:38 16,3 C 14,4 C 68 % 1019,6 hPa 0,0 l/m 2 min 0 min 384 W/m 14,6 km/h (3 Bft)
22.09.2014 16:40 16,3 C 14,4 C 68 % 1019,4 hPa 0,0 l/m 2 min 0 min 392 W/m 20,9 km/h (4 Bft)
22.09.2014 16:42 16,3 C 14,4 C 68 % 1019,5 hPa 0,0 l/m 2 min 0 min 388 W/m 16,7 km/h (3 Bft)
22.09.2014 16:44 16,4 C 14,4 C 68 % 1019,5 hPa 0,0 l/m 2 min 0 min 379 W/m 18,8 km/h (3 Bft)
22.09.2014 16:46 16,4 C 14,4 C 67 % 1019,5 hPa 0,0 l/m 2 min 0 min 365 W/m 20,9 km/h (4 Bft)
22.09.2014 16:48 16,4 C 14,4 C 68 % 1019,6 hPa 0,0 l/m 2 min 0 min 327 W/m 23,0 km/h (4 Bft)
22.09.2014 16:50 16,5 C 14,4 C 68 % 1019,5 hPa 0,0 l/m 2 min 0 min 366 W/m 20,9 km/h (4 Bft)
22.09.2014 16:52 16,6 C 14,4 C 69 % 1019,6 hPa 0,0 l/m 2 min 0 min 359 W/m 16,7 km/h (3 Bft)
22.09.2014 16:54 16,6 C 14,4 C 68 % 1019,6 hPa 0,0 l/m 2 min 0 min 353 W/m 25,1 km/h (4 Bft)
22.09.2014 16:56 16,7 C 14,4 C 67 % 1019,8 hPa 0,0 l/m 2 min 0 min 355 W/m 27,2 km/h (4 Bft)
22.09.2014 16:58 16,7 C 14,4 C 67 % 1019,7 hPa 0,0 l/m 2 min 0 min 352 W/m 23,0 km/h (4 Bft)
22.09.2014 17:00 16,7 C 14,4 C 67 % 1019,6 hPa 0,0 l/m 2 min 0 min 352 W/m 23,0 km/h (4 Bft)
22.09.2014 17:02 16,7 C 14,4 C 67 % 1019,7 hPa 0,0 l/m 2 min 0 min 359 W/m 20,9 km/h (4 Bft)
22.09.2014 17:04 16,7 C 15,0 C 67 % 1019,8 hPa 0,0 l/m 2 min 0 min 365 W/m 18,8 km/h (3 Bft)
22.09.2014 17:06 16,7 C 15,0 C 67 % 1019,7 hPa 0,0 l/m 2 min 0 min 378 W/m 25,1 km/h (4 Bft)
22.09.2014 17:08 16,8 C 15,0 C 68 % 1019,8 hPa 0,0 l/m 2 min 0 min 378 W/m 25,1 km/h (4 Bft)
22.09.2014 17:10 16,8 C 15,0 C 66 % 1019,8 hPa 0,0 l/m 2 min 0 min 311 W/m 23,0 km/h (4 Bft)
22.09.2014 17:12 16,8 C 15,0 C 66 % 1019,9 hPa 0,0 l/m 2 min 0 min 189 W/m 25,1 km/h (4 Bft)
22.09.2014 17:14 16,8 C 15,0 C 66 % 1019,9 hPa 0,0 l/m 2 min 0 min 189 W/m 23,0 km/h (4 Bft)
22.09.2014 17:16 16,8 C 15,0 C 65 % 1019,8 hPa 0,0 l/m 2 min 0 min 285 W/m 20,9 km/h (4 Bft)
22.09.2014 17:18 16,8 C 15,0 C 66 % 1019,8 hPa 0,0 l/m 2 min 0 min 316 W/m 20,9 km/h (4 Bft)
22.09.2014 17:20 16,8 C 15,0 C 66 % 1019,8 hPa 0,0 l/m 2 min 0 min 320 W/m 20,9 km/h (4 Bft)
22.09.2014 17:22 16,8 C 15,0 C 66 % 1019,8 hPa 0,0 l/m 2 min 0 min 346 W/m 16,7 km/h (3 Bft)
22.09.2014 17:24 16,8 C 15,0 C 66 % 1019,7 hPa 0,0 l/m 2 min 0 min 349 W/m 23,0 km/h (4 Bft)
22.09.2014 17:26 16,8 C 15,0 C 66 % 1019,8 hPa 0,0 l/m 2 min 0 min 339 W/m 16,7 km/h (3 Bft)
22.09.2014 17:28 16,8 C 15,0 C 66 % 1019,8 hPa 0,0 l/m 2 min 0 min 308 W/m 25,1 km/h (4 Bft)
22.09.2014 17:30 16,9 C 15,0 C 65 % 1019,8 hPa 0,0 l/m 2 min 0 min 216 W/m 25,1 km/h (4 Bft)
22.09.2014 17:32 16,8 C 15,0 C 65 % 1019,8 hPa 0,0 l/m 0 min 0 min 136 W/m 27,2 km/h (4 Bft)
22.09.2014 17:34 16,8 C 14,4 C 65 % 1019,8 hPa 0,0 l/m 0 min 0 min 114 W/m 20,9 km/h (4 Bft)
22.09.2014 17:36 16,8 C 14,4 C 65 % 1019,9 hPa 0,0 l/m 0 min 0 min 91 W/m 25,1 km/h (4 Bft)
22.09.2014 17:38 16,7 C 14,4 C 64 % 1020,0 hPa 0,0 l/m 0 min 0 min 70 W/m 31,4 km/h (5 Bft)
22.09.2014 17:40 16,6 C 14,4 C 64 % 1019,9 hPa 0,0 l/m 0 min 0 min 68 W/m 29,3 km/h (5 Bft)
22.09.2014 17:42 16,6 C 13,9 C 64 % 1020,0 hPa 0,0 l/m 0 min 0 min 69 W/m 27,2 km/h (4 Bft)
22.09.2014 17:44 16,4 C 13,9 C 64 % 1019,9 hPa 0,0 l/m 0 min 0 min 71 W/m 23,0 km/h (4 Bft)
22.09.2014 17:46 16,4 C 13,9 C 65 % 1020,0 hPa 0,0 l/m 0 min 0 min 62 W/m 20,9 km/h (4 Bft)
22.09.2014 17:48 16,3 C 13,9 C 65 % 1019,9 hPa 0,0 l/m 0 min 0 min 62 W/m 23,0 km/h (4 Bft)
22.09.2014 17:50 16,2 C 13,9 C 66 % 1020,0 hPa 0,0 l/m 0 min 0 min 57 W/m 16,7 km/h (3 Bft)
22.09.2014 17:52 16,2 C 13,9 C 66 % 1020,0 hPa 0,0 l/m 0 min 0 min 59 W/m 20,9 km/h (4 Bft)
22.09.2014 17:54 16,2 C 13,9 C 67 % 1020,0 hPa 0,0 l/m 0 min 0 min 81 W/m 18,8 km/h (3 Bft)
22.09.2014 17:56 16,1 C 13,9 C 67 % 1020,0 hPa 0,0 l/m 0 min 0 min 106 W/m 14,6 km/h (3 Bft)
22.09.2014 17:58 16,1 C 13,9 C 67 % 1020,0 hPa 0,0 l/m 0 min 0 min 81 W/m 16,7 km/h (3 Bft)
22.09.2014 18:00 16,1 C 13,9 C 67 % 1019,9 hPa 0,0 l/m 0 min 0 min 72 W/m 25,1 km/h (4 Bft)
22.09.2014 18:02 16,0 C 13,9 C 67 % 1020,0 hPa 0,0 l/m 0 min 0 min 74 W/m 16,7 km/h (3 Bft)
22.09.2014 18:05 15,9 C 13,9 C 68 % 1020,0 hPa 0,0 l/m 0 min 0 min 90 W/m 14,6 km/h (3 Bft)
22.09.2014 18:06 15,9 C 13,9 C 68 % 1020,0 hPa 0,0 l/m 0 min 0 min 102 W/m 20,9 km/h (4 Bft)
22.09.2014 18:08 15,9 C 13,9 C 69 % 1020,0 hPa 0,0 l/m 0 min 0 min 97 W/m 16,7 km/h (3 Bft)
22.09.2014 18:10 15,9 C 13,9 C 69 % 1020,0 hPa 0,0 l/m 0 min 0 min 73 W/m 20,9 km/h (4 Bft)
22.09.2014 18:12 15,8 C 13,9 C 69 % 1020,0 hPa 0,0 l/m 0 min 0 min 74 W/m 29,3 km/h (5 Bft)
22.09.2014 18:14 15,8 C 13,3 C 69 % 1020,0 hPa 0,0 l/m 0 min 0 min 64 W/m 14,6 km/h (3 Bft)
22.09.2014 18:16 15,7 C 13,3 C 69 % 1020,0 hPa 0,0 l/m 0 min 0 min 51 W/m 23,0 km/h (4 Bft)
22.09.2014 18:18 15,7 C 13,3 C 69 % 1020,0 hPa 0,0 l/m 0 min 0 min 48 W/m 20,9 km/h (4 Bft)
22.09.2014 18:20 15,6 C 13,3 C 69 % 1020,0 hPa 0,0 l/m 0 min 0 min 59 W/m 23,0 km/h (4 Bft)
22.09.2014 18:22 15,6 C 13,3 C 69 % 1020,1 hPa 0,0 l/m 0 min 0 min 55 W/m 23,0 km/h (4 Bft)
22.09.2014 18:24 15,6 C 13,3 C 69 % 1020,0 hPa 0,0 l/m 0 min 0 min 48 W/m 25,1 km/h (4 Bft)
22.09.2014 18:26 15,5 C 13,3 C 69 % 1020,1 hPa 0,0 l/m 0 min 0 min 71 W/m 20,9 km/h (4 Bft)
22.09.2014 18:28 15,4 C 13,3 C 69 % 1020,0 hPa 0,0 l/m 2 min 0 min 81 W/m 16,7 km/h (3 Bft)
22.09.2014 18:30 15,4 C 13,3 C 69 % 1020,1 hPa 0,0 l/m 0 min 0 min 74 W/m 16,7 km/h (3 Bft)
22.09.2014 18:32 15,4 C 13,3 C 69 % 1020,1 hPa 0,0 l/m 0 min 0 min 52 W/m 23,0 km/h (4 Bft)
22.09.2014 18:34 15,4 C 13,3 C 69 % 1020,1 hPa 0,0 l/m 0 min 0 min 49 W/m 16,7 km/h (3 Bft)
22.09.2014 18:36 15,3 C 13,3 C 69 % 1020,1 hPa 0,0 l/m 0 min 0 min 48 W/m 14,6 km/h (3 Bft)
22.09.2014 18:38 15,3 C 13,3 C 69 % 1020,1 hPa 0,0 l/m 0 min 0 min 44 W/m 16,7 km/h (3 Bft)
22.09.2014 18:40 15,3 C 12,8 C 69 % 1020,2 hPa 0,0 l/m 0 min 0 min 40 W/m 18,8 km/h (3 Bft)
22.09.2014 18:42 15,3 C 12,8 C 70 % 1020,3 hPa 0,0 l/m 0 min 0 min 39 W/m 12,6 km/h (3 Bft)
22.09.2014 18:44 15,2 C 12,8 C 70 % 1020,4 hPa 0,0 l/m 0 min 0 min 38 W/m 14,6 km/h (3 Bft)
22.09.2014 18:46 15,2 C 12,8 C 70 % 1020,4 hPa 0,0 l/m 0 min 0 min 38 W/m 12,6 km/h (3 Bft)
22.09.2014 18:48 15,1 C 12,8 C 70 % 1020,5 hPa 0,0 l/m 0 min 0 min 37 W/m 8,4 km/h (2 Bft)
22.09.2014 18:50 15,1 C 12,8 C 71 % 1020,5 hPa 0,0 l/m 0 min 0 min 33 W/m 14,6 km/h (3 Bft)
22.09.2014 18:52 15,1 C 12,8 C 71 % 1020,5 hPa 0,0 l/m 0 min 0 min 32 W/m 14,6 km/h (3 Bft)
22.09.2014 18:54 15,0 C 12,2 C 71 % 1020,5 hPa 0,0 l/m 0 min 0 min 32 W/m 18,8 km/h (3 Bft)
22.09.2014 18:56 15,0 C 12,2 C 72 % 1020,5 hPa 0,0 l/m 0 min 0 min 30 W/m 14,6 km/h (3 Bft)
22.09.2014 18:58 14,9 C 12,2 C 72 % 1020,5 hPa 0,0 l/m 0 min 0 min 29 W/m 10,5 km/h (2 Bft)
22.09.2014 19:00 14,9 C 12,2 C 72 % 1020,5 hPa 0,0 l/m 0 min 0 min 28 W/m 16,7 km/h (3 Bft)
22.09.2014 19:02 14,8 C 12,2 C 72 % 1020,5 hPa 0,0 l/m 0 min 0 min 28 W/m 16,7 km/h (3 Bft)
22.09.2014 19:04 14,7 C 12,2 C 73 % 1020,5 hPa 0,0 l/m 0 min 0 min 26 W/m 12,6 km/h (3 Bft)
22.09.2014 19:06 14,7 C 12,2 C 73 % 1020,6 hPa 0,0 l/m 0 min 0 min 25 W/m 20,9 km/h (4 Bft)
22.09.2014 19:08 14,7 C 12,2 C 73 % 1020,7 hPa 0,0 l/m 0 min 0 min 25 W/m 14,6 km/h (3 Bft)
22.09.2014 19:10 14,6 C 12,2 C 73 % 1020,6 hPa 0,0 l/m 0 min 0 min 23 W/m 14,6 km/h (3 Bft)
22.09.2014 19:12 14,5 C 12,2 C 74 % 1020,6 hPa 0,0 l/m 2 min 0 min 22 W/m 16,7 km/h (3 Bft)
22.09.2014 19:14 14,5 C 11,7 C 74 % 1020,6 hPa 0,0 l/m 2 min 0 min 20 W/m 20,9 km/h (4 Bft)
22.09.2014 19:16 14,4 C 11,7 C 75 % 1020,6 hPa 0,0 l/m 2 min 0 min 18 W/m 16,7 km/h (3 Bft)
22.09.2014 19:18 14,3 C 11,7 C 75 % 1020,6 hPa 0,0 l/m 2 min 0 min 17 W/m 12,6 km/h (3 Bft)
22.09.2014 19:20 14,3 C 11,7 C 75 % 1020,6 hPa 0,0 l/m 2 min 0 min 15 W/m 10,5 km/h (2 Bft)
22.09.2014 19:22 14,2 C 11,7 C 75 % 1020,6 hPa 0,0 l/m 2 min 0 min 14 W/m 12,6 km/h (3 Bft)
22.09.2014 19:24 14,2 C 11,7 C 75 % 1020,7 hPa 0,0 l/m 0 min 0 min 12 W/m 12,6 km/h (3 Bft)
22.09.2014 19:26 14,2 C 11,7 C 75 % 1020,7 hPa 0,0 l/m 0 min 0 min 11 W/m 12,6 km/h (3 Bft)
22.09.2014 19:28 14,2 C 11,1 C 76 % 1020,7 hPa 0,0 l/m 0 min 0 min 10 W/m 8,4 km/h (2 Bft)
22.09.2014 19:30 14,2 C 11,1 C 76 % 1020,6 hPa 0,0 l/m 0 min 0 min 9 W/m 12,6 km/h (3 Bft)
22.09.2014 19:32 14,1 C 11,1 C 76 % 1020,7 hPa 0,0 l/m 0 min 0 min 7 W/m 10,5 km/h (2 Bft)
22.09.2014 19:34 14,0 C 11,1 C 76 % 1020,7 hPa 0,0 l/m 0 min 0 min 6 W/m 16,7 km/h (3 Bft)
22.09.2014 19:36 13,9 C 11,7 C 76 % 1020,7 hPa 0,0 l/m 0 min 0 min 5 W/m 14,6 km/h (3 Bft)
22.09.2014 19:38 13,9 C 11,1 C 76 % 1020,6 hPa 0,0 l/m 0 min 0 min 5 W/m 12,6 km/h (3 Bft)
22.09.2014 19:40 13,8 C 11,1 C 77 % 1020,7 hPa 0,0 l/m 0 min 0 min 4 W/m 14,6 km/h (3 Bft)
22.09.2014 19:42 13,8 C 11,1 C 77 % 1020,7 hPa 0,0 l/m 0 min 0 min 0 W/m 10,5 km/h (2 Bft)
22.09.2014 19:44 13,7 C 11,1 C 77 % 1020,8 hPa 0,0 l/m 0 min 0 min 0 W/m 14,6 km/h (3 Bft)
22.09.2014 19:46 13,6 C 11,1 C 77 % 1020,7 hPa 0,0 l/m 0 min 0 min 0 W/m 14,6 km/h (3 Bft)
22.09.2014 19:48 13,6 C 11,1 C 77 % 1020,8 hPa 0,0 l/m 0 min 0 min 0 W/m 12,6 km/h (3 Bft)
22.09.2014 19:50 13,6 C 11,1 C 77 % 1020,8 hPa 0,0 l/m 0 min 0 min 0 W/m 12,6 km/h (3 Bft)
22.09.2014 19:52 13,4 C 11,1 C 77 % 1020,8 hPa 0,0 l/m 0 min 0 min 0 W/m 20,9 km/h (4 Bft)
22.09.2014 19:54 13,4 C 11,1 C 77 % 1020,8 hPa 0,0 l/m 0 min 0 min 0 W/m 8,4 km/h (2 Bft)
22.09.2014 19:56 13,4 C 11,1 C 78 % 1020,8 hPa 0,0 l/m 0 min 0 min 0 W/m 16,7 km/h (3 Bft)
22.09.2014 19:58 13,3 C 11,1 C 78 % 1020,9 hPa 0,0 l/m 0 min 0 min 0 W/m 12,6 km/h (3 Bft)
22.09.2014 20:00 13,3 C 11,1 C 78 % 1020,9 hPa 0,0 l/m 0 min 0 min 0 W/m 10,5 km/h (2 Bft)
22.09.2014 20:02 13,2 C 11,1 C 78 % 1020,9 hPa 0,0 l/m 0 min 0 min 0 W/m 14,6 km/h (3 Bft)
22.09.2014 20:04 13,2 C 11,1 C 78 % 1020,8 hPa 0,0 l/m 0 min 0 min 0 W/m 12,6 km/h (3 Bft)
22.09.2014 20:06 13,2 C 11,1 C 78 % 1020,8 hPa 0,0 l/m 0 min 0 min 0 W/m 12,6 km/h (3 Bft)
22.09.2014 20:08 13,1 C 10,6 C 78 % 1020,9 hPa 0,0 l/m 0 min 0 min 0 W/m 12,6 km/h (3 Bft)
22.09.2014 20:10 13,1 C 11,1 C 78 % 1020,9 hPa 0,0 l/m 0 min 0 min 0 W/m 10,5 km/h (2 Bft)
22.09.2014 20:12 13,1 C 10,6 C 78 % 1020,9 hPa 0,0 l/m 0 min 0 min 0 W/m 8,4 km/h (2 Bft)
22.09.2014 20:14 13,0 C 11,1 C 79 % 1021,0 hPa 0,0 l/m 0 min 0 min 0 W/m 10,5 km/h (2 Bft)
22.09.2014 20:16 12,9 C 10,6 C 79 % 1021,0 hPa 0,0 l/m 0 min 0 min 0 W/m 10,5 km/h (2 Bft)
22.09.2014 20:18 12,9 C 10,6 C 79 % 1021,0 hPa 0,0 l/m 0 min 0 min 0 W/m 8,4 km/h (2 Bft)
22.09.2014 20:20 12,9 C 10,6 C 79 % 1021,1 hPa 0,0 l/m 0 min 0 min 0 W/m 8,4 km/h (2 Bft)
22.09.2014 20:22 12,9 C 10,6 C 79 % 1021,1 hPa 0,0 l/m 0 min 0 min 0 W/m 6,3 km/h (2 Bft)
22.09.2014 20:24 12,8 C 10,6 C 79 % 1021,1 hPa 0,0 l/m 0 min 0 min 0 W/m 10,5 km/h (2 Bft)
22.09.2014 20:26 12,8 C 10,0 C 79 % 1021,1 hPa 0,0 l/m 0 min 0 min 0 W/m 6,3 km/h (2 Bft)
22.09.2014 20:28 12,8 C 10,0 C 79 % 1021,2 hPa 0,0 l/m 0 min 0 min 0 W/m 8,4 km/h (2 Bft)
22.09.2014 20:30 12,8 C 10,0 C 79 % 1021,2 hPa 0,0 l/m 0 min 0 min 0 W/m 8,4 km/h (2 Bft)
22.09.2014 20:32 12,7 C 10,0 C 79 % 1021,2 hPa 0,0 l/m 0 min 0 min 0 W/m 10,5 km/h (2 Bft)
22.09.2014 20:34 12,7 C 10,0 C 79 % 1021,2 hPa 0,0 l/m 0 min 0 min 0 W/m 8,4 km/h (2 Bft)
22.09.2014 20:36 12,6 C 10,0 C 80 % 1021,3 hPa 0,0 l/m 0 min 0 min 0 W/m 8,4 km/h (2 Bft)
22.09.2014 20:38 12,6 C 10,0 C 80 % 1021,3 hPa 0,0 l/m 0 min 0 min 0 W/m 8,4 km/h (2 Bft)
22.09.2014 20:40 12,6 C 10,0 C 80 % 1021,3 hPa 0,0 l/m 0 min 0 min 0 W/m 6,3 km/h (2 Bft)
22.09.2014 20:42 12,5 C 9,4 C 80 % 1021,3 hPa 0,0 l/m 0 min 0 min 0 W/m 6,3 km/h (2 Bft)
22.09.2014 20:44 12,5 C 9,4 C 80 % 1021,3 hPa 0,0 l/m 0 min 0 min 0 W/m 6,3 km/h (2 Bft)
22.09.2014 20:46 12,4 C 9,4 C 80 % 1021,4 hPa 0,0 l/m 0 min 0 min 0 W/m 6,3 km/h (2 Bft)
22.09.2014 20:48 12,4 C 9,4 C 80 % 1021,4 hPa 0,0 l/m 0 min 0 min 0 W/m 6,3 km/h (2 Bft)
22.09.2014 20:50 12,3 C 9,4 C 80 % 1021,4 hPa 0,0 l/m 0 min 0 min 0 W/m 8,4 km/h (2 Bft)
22.09.2014 20:52 12,3 C 9,4 C 80 % 1021,4 hPa 0,0 l/m 0 min 0 min 0 W/m 8,4 km/h (2 Bft)
22.09.2014 20:54 12,2 C 9,4 C 80 % 1021,4 hPa 0,0 l/m 0 min 0 min 0 W/m 8,4 km/h (2 Bft)
22.09.2014 20:56 12,2 C 9,4 C 80 % 1021,5 hPa 0,0 l/m 0 min 0 min 0 W/m 4,2 km/h (1 Bft)
22.09.2014 20:58 12,1 C 9,4 C 80 % 1021,5 hPa 0,0 l/m 0 min 0 min 0 W/m 6,3 km/h (2 Bft)
22.09.2014 21:00 12,1 C 9,4 C 80 % 1021,5 hPa 0,0 l/m 0 min 0 min 0 W/m 6,3 km/h (2 Bft)
22.09.2014 21:02 12,0 C 9,4 C 81 % 1021,4 hPa 0,0 l/m 0 min 0 min 0 W/m 4,2 km/h (1 Bft)
22.09.2014 21:04 11,9 C 8,9 C 81 % 1021,5 hPa 0,0 l/m 0 min 0 min 0 W/m 6,3 km/h (2 Bft)
22.09.2014 21:06 11,9 C 8,9 C 81 % 1021,6 hPa 0,0 l/m 0 min 0 min 0 W/m 4,2 km/h (1 Bft)
22.09.2014 21:08 11,9 C 8,9 C 81 % 1021,6 hPa 0,0 l/m 0 min 0 min 0 W/m 4,2 km/h (1 Bft)
22.09.2014 21:10 11,8 C 8,9 C 81 % 1021,6 hPa 0,0 l/m 0 min 0 min 0 W/m 6,3 km/h (2 Bft)
22.09.2014 21:12 11,7 C 8,9 C 81 % 1021,6 hPa 0,0 l/m 0 min 0 min 0 W/m 6,3 km/h (2 Bft)
22.09.2014 21:14 11,7 C 8,9 C 81 % 1021,6 hPa 0,0 l/m 0 min 0 min 0 W/m 6,3 km/h (2 Bft)
22.09.2014 21:16 11,6 C 8,9 C 81 % 1021,7 hPa 0,0 l/m 0 min 0 min 0 W/m 6,3 km/h (2 Bft)
22.09.2014 21:18 11,6 C 8,9 C 82 % 1021,6 hPa 0,0 l/m 0 min 0 min 0 W/m 6,3 km/h (2 Bft)
22.09.2014 21:20 11,5 C 8,9 C 81 % 1021,6 hPa 0,0 l/m 0 min 0 min 0 W/m 6,3 km/h (2 Bft)
22.09.2014 21:22 11,5 C 8,9 C 82 % 1021,6 hPa 0,0 l/m 0 min 0 min 0 W/m 4,2 km/h (1 Bft)
22.09.2014 21:24 11,4 C 8,9 C 82 % 1021,6 hPa 0,0 l/m 0 min 0 min 0 W/m 6,3 km/h (2 Bft)
22.09.2014 21:26 11,4 C 8,9 C 82 % 1021,7 hPa 0,0 l/m 0 min 0 min 0 W/m 4,2 km/h (1 Bft)
22.09.2014 21:28 11,3 C 8,9 C 82 % 1021,6 hPa 0,0 l/m 0 min 0 min 0 W/m 2,1 km/h (1 Bft)
22.09.2014 21:30 11,3 C 8,9 C 82 % 1021,6 hPa 0,0 l/m 0 min 0 min 0 W/m 2,1 km/h (1 Bft)
22.09.2014 21:32 11,2 C 8,9 C 82 % 1021,6 hPa 0,0 l/m 0 min 0 min 0 W/m 4,2 km/h (1 Bft)
22.09.2014 21:34 11,2 C 8,9 C 82 % 1021,7 hPa 0,0 l/m 0 min 0 min 0 W/m 6,3 km/h (2 Bft)
22.09.2014 21:36 11,1 C 8,3 C 82 % 1021,7 hPa 0,0 l/m 0 min 0 min 0 W/m 6,3 km/h (2 Bft)
22.09.2014 21:38 11,1 C 8,3 C 82 % 1021,7 hPa 0,0 l/m 0 min 0 min 0 W/m 6,3 km/h (2 Bft)
22.09.2014 21:40 11,1 C 8,3 C 83 % 1021,6 hPa 0,0 l/m 0 min 0 min 0 W/m 4,2 km/h (1 Bft)
22.09.2014 21:42 11,0 C 8,3 C 83 % 1021,7 hPa 0,0 l/m 0 min 0 min 0 W/m 4,2 km/h (1 Bft)
22.09.2014 21:44 10,9 C 8,3 C 83 % 1021,7 hPa 0,0 l/m 0 min 0 min 0 W/m 6,3 km/h (2 Bft)
22.09.2014 21:46 10,9 C 8,3 C 83 % 1021,7 hPa 0,0 l/m 0 min 0 min 0 W/m 4,2 km/h (1 Bft)
22.09.2014 21:48 10,8 C 8,3 C 83 % 1021,7 hPa 0,0 l/m 0 min 0 min 0 W/m 4,2 km/h (1 Bft)
22.09.2014 21:50 10,8 C 8,3 C 83 % 1021,7 hPa 0,0 l/m 0 min 0 min 0 W/m 6,3 km/h (2 Bft)
22.09.2014 21:52 10,8 C 8,3 C 83 % 1021,7 hPa 0,0 l/m 0 min 0 min 0 W/m 6,3 km/h (2 Bft)
22.09.2014 21:54 10,7 C 8,3 C 83 % 1021,8 hPa 0,0 l/m 0 min 0 min 0 W/m 6,3 km/h (2 Bft)
22.09.2014 21:56 10,7 C 8,3 C 84 % 1021,8 hPa 0,0 l/m 0 min 0 min 0 W/m 2,1 km/h (1 Bft)
22.09.2014 21:58 10,6 C 8,3 C 84 % 1021,8 hPa 0,0 l/m 0 min 0 min 0 W/m 4,2 km/h (1 Bft)
22.09.2014 22:00 10,6 C 8,3 C 84 % 1021,8 hPa 0,0 l/m 0 min 0 min 0 W/m 4,2 km/h (1 Bft)
22.09.2014 22:02 10,6 C 8,3 C 84 % 1021,7 hPa 0,0 l/m 0 min 0 min 0 W/m 4,2 km/h (1 Bft)
22.09.2014 22:04 10,5 C 8,3 C 84 % 1021,7 hPa 0,0 l/m 0 min 0 min 0 W/m 4,2 km/h (1 Bft)
22.09.2014 22:06 10,4 C 8,3 C 84 % 1021,7 hPa 0,0 l/m 0 min 0 min 0 W/m 6,3 km/h (2 Bft)
22.09.2014 22:08 10,4 C 8,3 C 84 % 1021,8 hPa 0,0 l/m 0 min 0 min 0 W/m 4,2 km/h (1 Bft)
22.09.2014 22:10 10,4 C 8,3 C 84 % 1021,7 hPa 0,0 l/m 0 min 0 min 0 W/m 6,3 km/h (2 Bft)
22.09.2014 22:12 10,3 C 8,3 C 85 % 1021,8 hPa 0,0 l/m 0 min 0 min 0 W/m 4,2 km/h (1 Bft)
22.09.2014 22:14 10,3 C 8,3 C 85 % 1021,8 hPa 0,0 l/m 0 min 0 min 0 W/m 6,3 km/h (2 Bft)
22.09.2014 22:16 10,2 C 8,3 C 85 % 1021,9 hPa 0,0 l/m 0 min 0 min 0 W/m 6,3 km/h (2 Bft)
22.09.2014 22:18 10,2 C 7,8 C 85 % 1021,8 hPa 0,0 l/m 0 min 0 min 0 W/m 6,3 km/h (2 Bft)
22.09.2014 22:20 10,2 C 7,8 C 85 % 1021,8 hPa 0,0 l/m 0 min 0 min 0 W/m 4,2 km/h (1 Bft)
22.09.2014 22:22 10,2 C 7,8 C 85 % 1021,8 hPa 0,0 l/m 0 min 0 min 0 W/m 6,3 km/h (2 Bft)
22.09.2014 22:24 10,1 C 7,8 C 86 % 1021,9 hPa 0,0 l/m 0 min 0 min 0 W/m 4,2 km/h (1 Bft)
22.09.2014 22:26 10,1 C 7,8 C 86 % 1021,8 hPa 0,0 l/m 0 min 0 min 0 W/m 4,2 km/h (1 Bft)
22.09.2014 22:28 10,1 C 7,8 C 86 % 1021,8 hPa 0,0 l/m 0 min 0 min 0 W/m 4,2 km/h (1 Bft)
22.09.2014 22:30 10,0 C 7,8 C 86 % 1021,8 hPa 0,0 l/m 0 min 0 min 0 W/m 4,2 km/h (1 Bft)
22.09.2014 22:32 10,0 C 7,8 C 86 % 1021,8 hPa 0,0 l/m 0 min 0 min 0 W/m 4,2 km/h (1 Bft)
22.09.2014 22:34 9,9 C 7,8 C 86 % 1021,9 hPa 0,0 l/m 0 min 0 min 0 W/m 2,1 km/h (1 Bft)
22.09.2014 22:36 9,9 C 7,8 C 86 % 1021,8 hPa 0,0 l/m 0 min 0 min 0 W/m 4,2 km/h (1 Bft)
22.09.2014 22:38 9,9 C 7,8 C 86 % 1021,8 hPa 0,0 l/m 0 min 0 min 0 W/m 4,2 km/h (1 Bft)
22.09.2014 22:40 9,8 C 7,8 C 86 % 1021,9 hPa 0,0 l/m 0 min 0 min 0 W/m 6,3 km/h (2 Bft)
22.09.2014 22:42 9,8 C 7,8 C 86 % 1021,9 hPa 0,0 l/m 0 min 0 min 0 W/m 4,2 km/h (1 Bft)
22.09.2014 22:44 9,8 C 7,8 C 87 % 1021,9 hPa 0,0 l/m 0 min 0 min 0 W/m 4,2 km/h (1 Bft)
22.09.2014 22:46 9,8 C 7,8 C 87 % 1021,9 hPa 0,0 l/m 0 min 0 min 0 W/m 4,2 km/h (1 Bft)
22.09.2014 22:48 9,7 C 7,8 C 87 % 1022,0 hPa 0,0 l/m 0 min 0 min 0 W/m 4,2 km/h (1 Bft)
22.09.2014 22:50 9,7 C 7,8 C 87 % 1022,0 hPa 0,0 l/m 0 min 0 min 0 W/m 6,3 km/h (2 Bft)
22.09.2014 22:52 9,7 C 7,8 C 87 % 1022,0 hPa 0,0 l/m 0 min 0 min 0 W/m 4,2 km/h (1 Bft)
22.09.2014 22:54 9,7 C 7,8 C 87 % 1021,9 hPa 0,0 l/m 0 min 0 min 0 W/m 4,2 km/h (1 Bft)
22.09.2014 22:56 9,6 C 7,8 C 87 % 1021,9 hPa 0,0 l/m 0 min 0 min 0 W/m 4,2 km/h (1 Bft)
22.09.2014 22:58 9,6 C 7,8 C 87 % 1021,8 hPa 0,0 l/m 0 min 0 min 0 W/m 4,2 km/h (1 Bft)
22.09.2014 23:00 9,6 C 7,8 C 87 % 1021,8 hPa 0,0 l/m 0 min 0 min 0 W/m 4,2 km/h (1 Bft)
22.09.2014 23:02 9,5 C 7,8 C 87 % 1021,9 hPa 0,0 l/m 0 min 0 min 0 W/m 2,1 km/h (1 Bft)
22.09.2014 23:04 9,5 C 7,8 C 87 % 1021,9 hPa 0,0 l/m 0 min 0 min 0 W/m 2,1 km/h (1 Bft)
22.09.2014 23:06 9,4 C 7,8 C 88 % 1021,9 hPa 0,0 l/m 0 min 0 min 0 W/m 2,1 km/h (1 Bft)
22.09.2014 23:08 9,4 C 7,8 C 88 % 1021,9 hPa 0,0 l/m 0 min 0 min 0 W/m 2,1 km/h (1 Bft)
22.09.2014 23:10 9,4 C 7,8 C 88 % 1021,9 hPa 0,0 l/m 0 min 0 min 0 W/m 2,1 km/h (1 Bft)
22.09.2014 23:12 9,4 C 7,8 C 88 % 1022,0 hPa 0,0 l/m 0 min 0 min 0 W/m 4,2 km/h (1 Bft)
22.09.2014 23:14 9,4 C 7,8 C 88 % 1022,0 hPa 0,0 l/m 0 min 0 min 0 W/m 4,2 km/h (1 Bft)
22.09.2014 23:16 9,3 C 7,8 C 88 % 1022,0 hPa 0,0 l/m 0 min 0 min 0 W/m 4,2 km/h (1 Bft)
22.09.2014 23:18 9,3 C 7,8 C 88 % 1022,0 hPa 0,0 l/m 0 min 0 min 0 W/m 4,2 km/h (1 Bft)
22.09.2014 23:20 9,3 C 7,8 C 88 % 1022,0 hPa 0,0 l/m 0 min 0 min 0 W/m 6,3 km/h (2 Bft)
22.09.2014 23:22 9,2 C 7,8 C 88 % 1022,0 hPa 0,0 l/m 0 min 0 min 0 W/m 4,2 km/h (1 Bft)
22.09.2014 23:24 9,2 C 7,8 C 89 % 1022,0 hPa 0,0 l/m 0 min 0 min 0 W/m 4,2 km/h (1 Bft)
22.09.2014 23:26 9,2 C 7,2 C 89 % 1022,0 hPa 0,0 l/m 0 min 0 min 0 W/m 4,2 km/h (1 Bft)
22.09.2014 23:28 9,2 C 7,2 C 89 % 1022,0 hPa 0,0 l/m 0 min 0 min 0 W/m 4,2 km/h (1 Bft)
22.09.2014 23:30 9,1 C 7,2 C 89 % 1022,0 hPa 0,0 l/m 0 min 0 min 0 W/m 2,1 km/h (1 Bft)
22.09.2014 23:32 9,1 C 7,2 C 89 % 1022,0 hPa 0,0 l/m 0 min 0 min 0 W/m 2,1 km/h (1 Bft)
22.09.2014 23:34 9,1 C 7,2 C 89 % 1022,0 hPa 0,0 l/m 0 min 0 min 0 W/m 2,1 km/h (1 Bft)
22.09.2014 23:36 9,1 C 7,2 C 89 % 1022,0 hPa 0,0 l/m 0 min 0 min 0 W/m 2,1 km/h (1 Bft)
22.09.2014 23:38 9,1 C 7,2 C 89 % 1022,1 hPa 0,0 l/m 0 min 0 min 0 W/m 2,1 km/h (1 Bft)
22.09.2014 23:40 9,0 C 7,2 C 89 % 1022,0 hPa 0,0 l/m 0 min 0 min 0 W/m 4,2 km/h (1 Bft)
22.09.2014 23:42 9,0 C 7,2 C 89 % 1022,0 hPa 0,0 l/m 0 min 0 min 0 W/m 4,2 km/h (1 Bft)
22.09.2014 23:44 9,0 C 7,2 C 89 % 1022,0 hPa 0,0 l/m 0 min 0 min 0 W/m 4,2 km/h (1 Bft)
22.09.2014 23:46 8,9 C 7,2 C 89 % 1022,1 hPa 0,0 l/m 0 min 0 min 0 W/m 4,2 km/h (1 Bft)
22.09.2014 23:48 8,9 C 7,2 C 90 % 1022,1 hPa 0,0 l/m 0 min 0 min 0 W/m 6,3 km/h (2 Bft)
22.09.2014 23:50 8,9 C 7,2 C 90 % 1022,1 hPa 0,0 l/m 0 min 0 min 0 W/m 4,2 km/h (1 Bft)
22.09.2014 23:52 8,9 C 7,2 C 89 % 1022,1 hPa 0,0 l/m 0 min 0 min 0 W/m 2,1 km/h (1 Bft)
22.09.2014 23:54 8,9 C 7,2 C 90 % 1022,1 hPa 0,0 l/m 0 min 0 min 0 W/m 2,1 km/h (1 Bft)
22.09.2014 23:56 8,8 C 7,2 C 90 % 1022,2 hPa 0,0 l/m 0 min 0 min 0 W/m 2,1 km/h (1 Bft)
22.09.2014 23:58 8,8 C 7,2 C 90 % 1022,2 hPa 0,0 l/m 0 min 0 min 0 W/m 2,1 km/h (1 Bft)
_ Min-Zeit 23:56 23:26 15:54 11:52 - - - - 21:28
Minimum _ 8,8 C 7,2 C 63 % 1018,8 hPa - - - - 2,1 km/h (1 Bft)
_ Max-Zeit 17:28 11:54 01:34 23:56 13:14 09:34 01:22 12:48 13:12
Maximum _ 16,9 C 15,6 C 95 % 1022,2 hPa 1,2 l/m 2 min 2 min 767 W/m 58,6 km/h
N-NO (7 Bft)
Durchschnitt _ 13,0 C 11,4 C 84 % 1020,1 hPa #4,4 l/m #5:30 h #1:00 h 239 W/m 15,9 km/h (3 Bft)
© 2014 W. Hausmann